<?xml version="1.0" encoding="UTF-8"?><gpx creator="Wikiloc - http://www.wikiloc.com" version="1.1" xmlns="http://www.topografix.com/GPX/1/1" xmlns:xsi="http://www.w3.org/2001/XMLSchema-instance" xsi:schemaLocation="http://www.topografix.com/GPX/1/1 http://www.topografix.com/GPX/1/1/gpx.xsd"><trk><name>Monte Palanzone da Caglio 20/02/16</name><cmt></cmt><desc></desc><trkseg><trkpt lat="45.871203" lon="9.236807"><ele>797.1</ele><time>2016-02-20T08:06:54Z</time></trkpt><trkpt lat="45.871203" lon="9.236807"><ele>797.1</ele><time>2016-02-20T08:06:55Z</time></trkpt><trkpt lat="45.871382" lon="9.236819"><ele>797.6</ele><time>2016-02-20T08:07:21Z</time></trkpt><trkpt lat="45.871379" lon="9.236835"><ele>797.6</ele><time>2016-02-20T08:07:38Z</time></trkpt><trkpt lat="45.871401" lon="9.236848"><ele>798.0</ele><time>2016-02-20T08:07:53Z</time></trkpt><trkpt lat="45.871412" lon="9.236933"><ele>796.6</ele><time>2016-02-20T08:08:06Z</time></trkpt><trkpt lat="45.871363" lon="9.236852"><ele>796.6</ele><time>2016-02-20T08:08:20Z</time></trkpt><trkpt lat="45.871342" lon="9.236841"><ele>798.0</ele><time>2016-02-20T08:08:22Z</time></trkpt><trkpt lat="45.871158" lon="9.236822"><ele>799.0</ele><time>2016-02-20T08:08:35Z</time></trkpt><trkpt lat="45.871006" lon="9.236916"><ele>800.0</ele><time>2016-02-20T08:08:48Z</time></trkpt><trkpt lat="45.870961" lon="9.236955"><ele>800.4</ele><time>2016-02-20T08:09:04Z</time></trkpt><trkpt lat="45.870937" lon="9.236867"><ele>801.9</ele><time>2016-02-20T08:09:19Z</time></trkpt><trkpt lat="45.870906" lon="9.236772"><ele>803.3</ele><time>2016-02-20T08:09:35Z</time></trkpt><trkpt lat="45.870870" lon="9.236672"><ele>805.2</ele><time>2016-02-20T08:09:44Z</time></trkpt><trkpt lat="45.870774" lon="9.236543"><ele>807.2</ele><time>2016-02-20T08:10:00Z</time></trkpt><trkpt lat="45.870707" lon="9.236494"><ele>807.6</ele><time>2016-02-20T08:10:26Z</time></trkpt><trkpt lat="45.870612" lon="9.236394"><ele>808.1</ele><time>2016-02-20T08:10:43Z</time></trkpt><trkpt lat="45.870566" lon="9.236270"><ele>809.6</ele><time>2016-02-20T08:10:56Z</time></trkpt><trkpt lat="45.870538" lon="9.236180"><ele>811.0</ele><time>2016-02-20T08:11:09Z</time></trkpt><trkpt lat="45.870571" lon="9.236082"><ele>811.0</ele><time>2016-02-20T08:11:22Z</time></trkpt><trkpt lat="45.870543" lon="9.236140"><ele>810.5</ele><time>2016-02-20T08:11:46Z</time></trkpt><trkpt lat="45.870671" lon="9.236223"><ele>809.1</ele><time>2016-02-20T08:12:00Z</time></trkpt><trkpt lat="45.870778" lon="9.236247"><ele>807.6</ele><time>2016-02-20T08:12:14Z</time></trkpt><trkpt lat="45.870799" lon="9.236259"><ele>806.7</ele><time>2016-02-20T08:12:16Z</time></trkpt><trkpt lat="45.870964" lon="9.236318"><ele>804.8</ele><time>2016-02-20T08:12:31Z</time></trkpt><trkpt lat="45.871158" lon="9.236396"><ele>802.8</ele><time>2016-02-20T08:12:48Z</time></trkpt><trkpt lat="45.871184" lon="9.236379"><ele>802.4</ele><time>2016-02-20T08:12:56Z</time></trkpt><trkpt lat="45.871228" lon="9.236247"><ele>803.8</ele><time>2016-02-20T08:13:05Z</time></trkpt><trkpt lat="45.871243" lon="9.236217"><ele>805.2</ele><time>2016-02-20T08:13:08Z</time></trkpt><trkpt lat="45.871297" lon="9.236106"><ele>806.7</ele><time>2016-02-20T08:13:22Z</time></trkpt><trkpt lat="45.871323" lon="9.235989"><ele>808.6</ele><time>2016-02-20T08:13:31Z</time></trkpt><trkpt lat="45.871378" lon="9.235819"><ele>811.5</ele><time>2016-02-20T08:13:43Z</time></trkpt><trkpt lat="45.871424" lon="9.235693"><ele>813.4</ele><time>2016-02-20T08:13:53Z</time></trkpt><trkpt lat="45.871467" lon="9.235521"><ele>816.3</ele><time>2016-02-20T08:14:04Z</time></trkpt><trkpt lat="45.871530" lon="9.235354"><ele>818.7</ele><time>2016-02-20T08:14:16Z</time></trkpt><trkpt lat="45.871603" lon="9.235121"><ele>821.6</ele><time>2016-02-20T08:14:32Z</time></trkpt><trkpt lat="45.871659" lon="9.234860"><ele>825.0</ele><time>2016-02-20T08:14:49Z</time></trkpt><trkpt lat="45.871723" lon="9.234677"><ele>827.8</ele><time>2016-02-20T08:15:04Z</time></trkpt><trkpt lat="45.871797" lon="9.234398"><ele>829.8</ele><time>2016-02-20T08:15:23Z</time></trkpt><trkpt lat="45.871860" lon="9.234245"><ele>832.6</ele><time>2016-02-20T08:15:39Z</time></trkpt><trkpt lat="45.871937" lon="9.234053"><ele>835.0</ele><time>2016-02-20T08:15:56Z</time></trkpt><trkpt lat="45.871999" lon="9.233691"><ele>837.0</ele><time>2016-02-20T08:16:12Z</time></trkpt><trkpt lat="45.872010" lon="9.233589"><ele>837.5</ele><time>2016-02-20T08:16:16Z</time></trkpt><trkpt lat="45.872128" lon="9.233331"><ele>838.9</ele><time>2016-02-20T08:16:30Z</time></trkpt><trkpt lat="45.872141" lon="9.233145"><ele>841.3</ele><time>2016-02-20T08:16:43Z</time></trkpt><trkpt lat="45.872187" lon="9.232970"><ele>843.7</ele><time>2016-02-20T08:16:56Z</time></trkpt><trkpt lat="45.872237" lon="9.232795"><ele>847.1</ele><time>2016-02-20T08:17:10Z</time></trkpt><trkpt lat="45.872299" lon="9.232535"><ele>849.0</ele><time>2016-02-20T08:17:24Z</time></trkpt><trkpt lat="45.872358" lon="9.232341"><ele>850.9</ele><time>2016-02-20T08:17:37Z</time></trkpt><trkpt lat="45.872396" lon="9.232211"><ele>852.8</ele><time>2016-02-20T08:17:48Z</time></trkpt><trkpt lat="45.872459" lon="9.231976"><ele>855.2</ele><time>2016-02-20T08:18:03Z</time></trkpt><trkpt lat="45.872522" lon="9.231788"><ele>857.2</ele><time>2016-02-20T08:18:17Z</time></trkpt><trkpt lat="45.872648" lon="9.231561"><ele>860.0</ele><time>2016-02-20T08:18:34Z</time></trkpt><trkpt lat="45.872767" lon="9.231422"><ele>862.0</ele><time>2016-02-20T08:18:47Z</time></trkpt><trkpt lat="45.872872" lon="9.231284"><ele>864.4</ele><time>2016-02-20T08:19:01Z</time></trkpt><trkpt lat="45.873009" lon="9.231106"><ele>866.8</ele><time>2016-02-20T08:19:15Z</time></trkpt><trkpt lat="45.873102" lon="9.230958"><ele>869.2</ele><time>2016-02-20T08:19:30Z</time></trkpt><trkpt lat="45.873216" lon="9.230807"><ele>872.5</ele><time>2016-02-20T08:19:45Z</time></trkpt><trkpt lat="45.873377" lon="9.230717"><ele>874.5</ele><time>2016-02-20T08:19:56Z</time></trkpt><trkpt lat="45.873425" lon="9.230648"><ele>875.9</ele><time>2016-02-20T08:20:09Z</time></trkpt><trkpt lat="45.873427" lon="9.230633"><ele>876.4</ele><time>2016-02-20T08:20:25Z</time></trkpt><trkpt lat="45.873464" lon="9.230577"><ele>877.3</ele><time>2016-02-20T08:20:32Z</time></trkpt><trkpt lat="45.873592" lon="9.230439"><ele>879.7</ele><time>2016-02-20T08:20:46Z</time></trkpt><trkpt lat="45.873667" lon="9.230372"><ele>882.2</ele><time>2016-02-20T08:20:57Z</time></trkpt><trkpt lat="45.873698" lon="9.230352"><ele>882.6</ele><time>2016-02-20T08:21:00Z</time></trkpt><trkpt lat="45.873834" lon="9.230267"><ele>884.6</ele><time>2016-02-20T08:21:13Z</time></trkpt><trkpt lat="45.873970" lon="9.230243"><ele>886.5</ele><time>2016-02-20T08:21:25Z</time></trkpt><trkpt lat="45.874068" lon="9.230294"><ele>888.4</ele><time>2016-02-20T08:21:35Z</time></trkpt><trkpt lat="45.874227" lon="9.230402"><ele>890.3</ele><time>2016-02-20T08:21:48Z</time></trkpt><trkpt lat="45.874386" lon="9.230533"><ele>892.2</ele><time>2016-02-20T08:22:02Z</time></trkpt><trkpt lat="45.874501" lon="9.230682"><ele>893.7</ele><time>2016-02-20T08:22:15Z</time></trkpt><trkpt lat="45.874617" lon="9.230795"><ele>895.6</ele><time>2016-02-20T08:22:26Z</time></trkpt><trkpt lat="45.874637" lon="9.230814"><ele>895.6</ele><time>2016-02-20T08:22:28Z</time></trkpt><trkpt lat="45.874739" lon="9.230918"><ele>897.1</ele><time>2016-02-20T08:22:39Z</time></trkpt><trkpt lat="45.874852" lon="9.231024"><ele>898.5</ele><time>2016-02-20T08:22:50Z</time></trkpt><trkpt lat="45.874963" lon="9.231152"><ele>899.9</ele><time>2016-02-20T08:23:02Z</time></trkpt><trkpt lat="45.875125" lon="9.231311"><ele>901.4</ele><time>2016-02-20T08:23:15Z</time></trkpt><trkpt lat="45.875233" lon="9.231387"><ele>902.8</ele><time>2016-02-20T08:23:26Z</time></trkpt><trkpt lat="45.875390" lon="9.231449"><ele>904.7</ele><time>2016-02-20T08:23:41Z</time></trkpt><trkpt lat="45.875534" lon="9.231557"><ele>905.7</ele><time>2016-02-20T08:23:52Z</time></trkpt><trkpt lat="45.875582" lon="9.231659"><ele>906.7</ele><time>2016-02-20T08:24:01Z</time></trkpt><trkpt lat="45.875658" lon="9.231828"><ele>908.1</ele><time>2016-02-20T08:24:14Z</time></trkpt><trkpt lat="45.875662" lon="9.231833"><ele>908.1</ele><time>2016-02-20T08:24:15Z</time></trkpt><trkpt lat="45.875686" lon="9.231780"><ele>909.1</ele><time>2016-02-20T08:24:26Z</time></trkpt><trkpt lat="45.875648" lon="9.231595"><ele>911.0</ele><time>2016-02-20T08:24:38Z</time></trkpt><trkpt lat="45.875594" lon="9.231428"><ele>911.5</ele><time>2016-02-20T08:24:50Z</time></trkpt><trkpt lat="45.875523" lon="9.231238"><ele>913.4</ele><time>2016-02-20T08:25:03Z</time></trkpt><trkpt lat="45.875425" lon="9.231135"><ele>914.4</ele><time>2016-02-20T08:25:17Z</time></trkpt><trkpt lat="45.875393" lon="9.231098"><ele>914.4</ele><time>2016-02-20T08:25:22Z</time></trkpt><trkpt lat="45.875328" lon="9.230933"><ele>914.8</ele><time>2016-02-20T08:25:32Z</time></trkpt><trkpt lat="45.875265" lon="9.230742"><ele>916.3</ele><time>2016-02-20T08:25:44Z</time></trkpt><trkpt lat="45.875209" lon="9.230567"><ele>917.7</ele><time>2016-02-20T08:25:55Z</time></trkpt><trkpt lat="45.875170" lon="9.230389"><ele>918.2</ele><time>2016-02-20T08:26:06Z</time></trkpt><trkpt lat="45.875078" lon="9.230131"><ele>919.6</ele><time>2016-02-20T08:26:20Z</time></trkpt><trkpt lat="45.875095" lon="9.230022"><ele>921.1</ele><time>2016-02-20T08:26:31Z</time></trkpt><trkpt lat="45.875143" lon="9.229851"><ele>922.5</ele><time>2016-02-20T08:26:44Z</time></trkpt><trkpt lat="45.875155" lon="9.229696"><ele>924.0</ele><time>2016-02-20T08:26:56Z</time></trkpt><trkpt lat="45.875174" lon="9.229448"><ele>925.9</ele><time>2016-02-20T08:27:09Z</time></trkpt><trkpt lat="45.875236" lon="9.229281"><ele>926.4</ele><time>2016-02-20T08:27:19Z</time></trkpt><trkpt lat="45.875287" lon="9.229181"><ele>926.4</ele><time>2016-02-20T08:27:28Z</time></trkpt><trkpt lat="45.875362" lon="9.229082"><ele>927.8</ele><time>2016-02-20T08:27:37Z</time></trkpt><trkpt lat="45.875481" lon="9.228988"><ele>928.8</ele><time>2016-02-20T08:27:48Z</time></trkpt><trkpt lat="45.875553" lon="9.228912"><ele>930.2</ele><time>2016-02-20T08:27:58Z</time></trkpt><trkpt lat="45.875643" lon="9.228871"><ele>930.7</ele><time>2016-02-20T08:28:16Z</time></trkpt><trkpt lat="45.875681" lon="9.228959"><ele>932.1</ele><time>2016-02-20T08:28:26Z</time></trkpt><trkpt lat="45.875622" lon="9.229094"><ele>932.6</ele><time>2016-02-20T08:28:38Z</time></trkpt><trkpt lat="45.875616" lon="9.229197"><ele>933.1</ele><time>2016-02-20T08:28:44Z</time></trkpt><trkpt lat="45.875646" lon="9.229410"><ele>934.5</ele><time>2016-02-20T08:28:56Z</time></trkpt><trkpt lat="45.875714" lon="9.229611"><ele>936.0</ele><time>2016-02-20T08:29:09Z</time></trkpt><trkpt lat="45.875732" lon="9.229665"><ele>936.5</ele><time>2016-02-20T08:29:12Z</time></trkpt><trkpt lat="45.875803" lon="9.229869"><ele>937.9</ele><time>2016-02-20T08:29:24Z</time></trkpt><trkpt lat="45.875880" lon="9.230029"><ele>939.4</ele><time>2016-02-20T08:29:36Z</time></trkpt><trkpt lat="45.875944" lon="9.230193"><ele>941.3</ele><time>2016-02-20T08:29:47Z</time></trkpt><trkpt lat="45.876006" lon="9.230334"><ele>942.7</ele><time>2016-02-20T08:29:57Z</time></trkpt><trkpt lat="45.876089" lon="9.230530"><ele>944.2</ele><time>2016-02-20T08:30:08Z</time></trkpt><trkpt lat="45.876166" lon="9.230680"><ele>945.1</ele><time>2016-02-20T08:30:17Z</time></trkpt><trkpt lat="45.876264" lon="9.230898"><ele>946.6</ele><time>2016-02-20T08:30:30Z</time></trkpt><trkpt lat="45.876337" lon="9.230927"><ele>948.0</ele><time>2016-02-20T08:30:42Z</time></trkpt><trkpt lat="45.876297" lon="9.230743"><ele>949.4</ele><time>2016-02-20T08:30:53Z</time></trkpt><trkpt lat="45.876229" lon="9.230557"><ele>951.4</ele><time>2016-02-20T08:31:06Z</time></trkpt><trkpt lat="45.876225" lon="9.230545"><ele>951.4</ele><time>2016-02-20T08:31:07Z</time></trkpt><trkpt lat="45.876211" lon="9.230358"><ele>952.8</ele><time>2016-02-20T08:31:21Z</time></trkpt><trkpt lat="45.876242" lon="9.230136"><ele>954.7</ele><time>2016-02-20T08:31:34Z</time></trkpt><trkpt lat="45.876293" lon="9.229944"><ele>956.2</ele><time>2016-02-20T08:31:47Z</time></trkpt><trkpt lat="45.876344" lon="9.229832"><ele>957.1</ele><time>2016-02-20T08:31:57Z</time></trkpt><trkpt lat="45.876378" lon="9.229769"><ele>957.6</ele><time>2016-02-20T08:32:02Z</time></trkpt><trkpt lat="45.876453" lon="9.229705"><ele>959.1</ele><time>2016-02-20T08:32:13Z</time></trkpt><trkpt lat="45.876555" lon="9.229632"><ele>960.0</ele><time>2016-02-20T08:32:24Z</time></trkpt><trkpt lat="45.876638" lon="9.229538"><ele>961.5</ele><time>2016-02-20T08:32:36Z</time></trkpt><trkpt lat="45.876724" lon="9.229404"><ele>962.9</ele><time>2016-02-20T08:32:47Z</time></trkpt><trkpt lat="45.876791" lon="9.229301"><ele>963.9</ele><time>2016-02-20T08:32:56Z</time></trkpt><trkpt lat="45.876856" lon="9.229146"><ele>965.3</ele><time>2016-02-20T08:33:07Z</time></trkpt><trkpt lat="45.876934" lon="9.229104"><ele>966.7</ele><time>2016-02-20T08:33:19Z</time></trkpt><trkpt lat="45.876940" lon="9.229193"><ele>968.2</ele><time>2016-02-20T08:33:29Z</time></trkpt><trkpt lat="45.876950" lon="9.229349"><ele>970.1</ele><time>2016-02-20T08:33:42Z</time></trkpt><trkpt lat="45.877035" lon="9.229515"><ele>971.1</ele><time>2016-02-20T08:33:52Z</time></trkpt><trkpt lat="45.877084" lon="9.229728"><ele>972.0</ele><time>2016-02-20T08:34:03Z</time></trkpt><trkpt lat="45.877079" lon="9.229925"><ele>973.0</ele><time>2016-02-20T08:34:14Z</time></trkpt><trkpt lat="45.877045" lon="9.230162"><ele>974.4</ele><time>2016-02-20T08:34:28Z</time></trkpt><trkpt lat="45.877021" lon="9.230276"><ele>975.4</ele><time>2016-02-20T08:34:34Z</time></trkpt><trkpt lat="45.877016" lon="9.230392"><ele>976.4</ele><time>2016-02-20T08:34:44Z</time></trkpt><trkpt lat="45.877027" lon="9.230517"><ele>976.8</ele><time>2016-02-20T08:34:54Z</time></trkpt><trkpt lat="45.877059" lon="9.230631"><ele>977.3</ele><time>2016-02-20T08:35:05Z</time></trkpt><trkpt lat="45.877108" lon="9.230695"><ele>978.8</ele><time>2016-02-20T08:35:17Z</time></trkpt><trkpt lat="45.877167" lon="9.230754"><ele>979.7</ele><time>2016-02-20T08:35:28Z</time></trkpt><trkpt lat="45.877195" lon="9.230764"><ele>979.7</ele><time>2016-02-20T08:35:31Z</time></trkpt><trkpt lat="45.877290" lon="9.230786"><ele>980.7</ele><time>2016-02-20T08:35:42Z</time></trkpt><trkpt lat="45.877363" lon="9.230812"><ele>981.6</ele><time>2016-02-20T08:35:52Z</time></trkpt><trkpt lat="45.877488" lon="9.230874"><ele>982.6</ele><time>2016-02-20T08:36:04Z</time></trkpt><trkpt lat="45.877544" lon="9.230859"><ele>985.0</ele><time>2016-02-20T08:36:15Z</time></trkpt><trkpt lat="45.877418" lon="9.230669"><ele>987.4</ele><time>2016-02-20T08:36:32Z</time></trkpt><trkpt lat="45.877363" lon="9.230562"><ele>988.9</ele><time>2016-02-20T08:36:43Z</time></trkpt><trkpt lat="45.877548" lon="9.230597"><ele>990.3</ele><time>2016-02-20T08:36:58Z</time></trkpt><trkpt lat="45.877711" lon="9.230666"><ele>991.7</ele><time>2016-02-20T08:37:14Z</time></trkpt><trkpt lat="45.877842" lon="9.230739"><ele>993.7</ele><time>2016-02-20T08:37:30Z</time></trkpt><trkpt lat="45.878025" lon="9.230757"><ele>995.1</ele><time>2016-02-20T08:37:44Z</time></trkpt><trkpt lat="45.878061" lon="9.230648"><ele>997.0</ele><time>2016-02-20T08:37:58Z</time></trkpt><trkpt lat="45.878026" lon="9.230436"><ele>999.0</ele><time>2016-02-20T08:38:14Z</time></trkpt><trkpt lat="45.877866" lon="9.230327"><ele>1000.4</ele><time>2016-02-20T08:38:31Z</time></trkpt><trkpt lat="45.877751" lon="9.230365"><ele>1001.8</ele><time>2016-02-20T08:38:46Z</time></trkpt><trkpt lat="45.877770" lon="9.230242"><ele>1002.8</ele><time>2016-02-20T08:38:59Z</time></trkpt><trkpt lat="45.877777" lon="9.229960"><ele>1004.2</ele><time>2016-02-20T08:39:13Z</time></trkpt><trkpt lat="45.877812" lon="9.229631"><ele>1005.7</ele><time>2016-02-20T08:39:26Z</time></trkpt><trkpt lat="45.877838" lon="9.229445"><ele>1006.6</ele><time>2016-02-20T08:39:35Z</time></trkpt><trkpt lat="45.877906" lon="9.229197"><ele>1008.6</ele><time>2016-02-20T08:39:50Z</time></trkpt><trkpt lat="45.877969" lon="9.229026"><ele>1010.5</ele><time>2016-02-20T08:40:02Z</time></trkpt><trkpt lat="45.878009" lon="9.228841"><ele>1011.9</ele><time>2016-02-20T08:40:15Z</time></trkpt><trkpt lat="45.878071" lon="9.228664"><ele>1014.3</ele><time>2016-02-20T08:40:29Z</time></trkpt><trkpt lat="45.878114" lon="9.228405"><ele>1015.8</ele><time>2016-02-20T08:40:42Z</time></trkpt><trkpt lat="45.878145" lon="9.228205"><ele>1018.2</ele><time>2016-02-20T08:40:55Z</time></trkpt><trkpt lat="45.878190" lon="9.227990"><ele>1020.1</ele><time>2016-02-20T08:41:07Z</time></trkpt><trkpt lat="45.878281" lon="9.227765"><ele>1022.0</ele><time>2016-02-20T08:41:21Z</time></trkpt><trkpt lat="45.878333" lon="9.227650"><ele>1023.5</ele><time>2016-02-20T08:41:30Z</time></trkpt><trkpt lat="45.878387" lon="9.227486"><ele>1025.4</ele><time>2016-02-20T08:41:42Z</time></trkpt><trkpt lat="45.878432" lon="9.227292"><ele>1026.8</ele><time>2016-02-20T08:41:53Z</time></trkpt><trkpt lat="45.878472" lon="9.227166"><ele>1028.8</ele><time>2016-02-20T08:42:05Z</time></trkpt><trkpt lat="45.878473" lon="9.226979"><ele>1030.2</ele><time>2016-02-20T08:42:16Z</time></trkpt><trkpt lat="45.878475" lon="9.226764"><ele>1032.1</ele><time>2016-02-20T08:42:28Z</time></trkpt><trkpt lat="45.878490" lon="9.226577"><ele>1033.6</ele><time>2016-02-20T08:42:40Z</time></trkpt><trkpt lat="45.878540" lon="9.226410"><ele>1035.0</ele><time>2016-02-20T08:42:52Z</time></trkpt><trkpt lat="45.878598" lon="9.226250"><ele>1036.9</ele><time>2016-02-20T08:43:06Z</time></trkpt><trkpt lat="45.878666" lon="9.226076"><ele>1038.8</ele><time>2016-02-20T08:43:19Z</time></trkpt><trkpt lat="45.878688" lon="9.226040"><ele>1039.3</ele><time>2016-02-20T08:43:22Z</time></trkpt><trkpt lat="45.878762" lon="9.225867"><ele>1040.8</ele><time>2016-02-20T08:43:35Z</time></trkpt><trkpt lat="45.878845" lon="9.225704"><ele>1042.7</ele><time>2016-02-20T08:43:47Z</time></trkpt><trkpt lat="45.878911" lon="9.225509"><ele>1044.1</ele><time>2016-02-20T08:43:57Z</time></trkpt><trkpt lat="45.878993" lon="9.225386"><ele>1046.1</ele><time>2016-02-20T08:44:11Z</time></trkpt><trkpt lat="45.879090" lon="9.225238"><ele>1047.5</ele><time>2016-02-20T08:44:25Z</time></trkpt><trkpt lat="45.879105" lon="9.225210"><ele>1047.5</ele><time>2016-02-20T08:44:28Z</time></trkpt><trkpt lat="45.879132" lon="9.224852"><ele>1049.4</ele><time>2016-02-20T08:44:40Z</time></trkpt><trkpt lat="45.879089" lon="9.224654"><ele>1049.9</ele><time>2016-02-20T08:44:52Z</time></trkpt><trkpt lat="45.879086" lon="9.224638"><ele>1049.9</ele><time>2016-02-20T08:44:53Z</time></trkpt><trkpt lat="45.879096" lon="9.224548"><ele>1050.9</ele><time>2016-02-20T08:45:00Z</time></trkpt><trkpt lat="45.879153" lon="9.224619"><ele>1052.3</ele><time>2016-02-20T08:45:10Z</time></trkpt><trkpt lat="45.879192" lon="9.224781"><ele>1053.7</ele><time>2016-02-20T08:45:22Z</time></trkpt><trkpt lat="45.879212" lon="9.224914"><ele>1055.2</ele><time>2016-02-20T08:45:31Z</time></trkpt><trkpt lat="45.879212" lon="9.225000"><ele>1056.2</ele><time>2016-02-20T08:45:38Z</time></trkpt><trkpt lat="45.879181" lon="9.225154"><ele>1057.6</ele><time>2016-02-20T08:45:49Z</time></trkpt><trkpt lat="45.879163" lon="9.225298"><ele>1058.6</ele><time>2016-02-20T08:45:58Z</time></trkpt><trkpt lat="45.879137" lon="9.225474"><ele>1059.5</ele><time>2016-02-20T08:46:08Z</time></trkpt><trkpt lat="45.879110" lon="9.225703"><ele>1061.0</ele><time>2016-02-20T08:46:21Z</time></trkpt><trkpt lat="45.879066" lon="9.225928"><ele>1061.9</ele><time>2016-02-20T08:46:33Z</time></trkpt><trkpt lat="45.879029" lon="9.226125"><ele>1063.4</ele><time>2016-02-20T08:46:45Z</time></trkpt><trkpt lat="45.879030" lon="9.226347"><ele>1065.3</ele><time>2016-02-20T08:46:56Z</time></trkpt><trkpt lat="45.879061" lon="9.226545"><ele>1066.2</ele><time>2016-02-20T08:47:09Z</time></trkpt><trkpt lat="45.879082" lon="9.226680"><ele>1067.2</ele><time>2016-02-20T08:47:20Z</time></trkpt><trkpt lat="45.879126" lon="9.226847"><ele>1069.1</ele><time>2016-02-20T08:47:32Z</time></trkpt><trkpt lat="45.879165" lon="9.227028"><ele>1070.6</ele><time>2016-02-20T08:47:42Z</time></trkpt><trkpt lat="45.879187" lon="9.227248"><ele>1072.0</ele><time>2016-02-20T08:47:57Z</time></trkpt><trkpt lat="45.879197" lon="9.227428"><ele>1073.0</ele><time>2016-02-20T08:48:09Z</time></trkpt><trkpt lat="45.879203" lon="9.227653"><ele>1074.4</ele><time>2016-02-20T08:48:21Z</time></trkpt><trkpt lat="45.879207" lon="9.227675"><ele>1074.9</ele><time>2016-02-20T08:48:22Z</time></trkpt><trkpt lat="45.879240" lon="9.227855"><ele>1075.9</ele><time>2016-02-20T08:48:33Z</time></trkpt><trkpt lat="45.879250" lon="9.227895"><ele>1075.9</ele><time>2016-02-20T08:48:39Z</time></trkpt><trkpt lat="45.879283" lon="9.228075"><ele>1076.8</ele><time>2016-02-20T08:48:51Z</time></trkpt><trkpt lat="45.879259" lon="9.228071"><ele>1076.8</ele><time>2016-02-20T08:49:08Z</time></trkpt><trkpt lat="45.879268" lon="9.228085"><ele>1076.8</ele><time>2016-02-20T08:49:35Z</time></trkpt><trkpt lat="45.879265" lon="9.228140"><ele>1076.8</ele><time>2016-02-20T08:50:08Z</time></trkpt><trkpt lat="45.879253" lon="9.228176"><ele>1076.8</ele><time>2016-02-20T08:50:35Z</time></trkpt><trkpt lat="45.879234" lon="9.228181"><ele>1077.3</ele><time>2016-02-20T08:51:06Z</time></trkpt><trkpt lat="45.879217" lon="9.228113"><ele>1077.3</ele><time>2016-02-20T08:51:25Z</time></trkpt><trkpt lat="45.879217" lon="9.228066"><ele>1077.3</ele><time>2016-02-20T08:51:51Z</time></trkpt><trkpt lat="45.879213" lon="9.228078"><ele>1077.3</ele><time>2016-02-20T08:52:11Z</time></trkpt><trkpt lat="45.879270" lon="9.228075"><ele>1077.3</ele><time>2016-02-20T08:52:23Z</time></trkpt><trkpt lat="45.879320" lon="9.228069"><ele>1077.8</ele><time>2016-02-20T08:52:28Z</time></trkpt><trkpt lat="45.879377" lon="9.228059"><ele>1078.3</ele><time>2016-02-20T08:52:40Z</time></trkpt><trkpt lat="45.879402" lon="9.228025"><ele>1078.7</ele><time>2016-02-20T08:53:02Z</time></trkpt><trkpt lat="45.879426" lon="9.227980"><ele>1079.7</ele><time>2016-02-20T08:53:16Z</time></trkpt><trkpt lat="45.879410" lon="9.227984"><ele>1080.2</ele><time>2016-02-20T08:53:25Z</time></trkpt><trkpt lat="45.879381" lon="9.227973"><ele>1080.2</ele><time>2016-02-20T08:53:38Z</time></trkpt><trkpt lat="45.879359" lon="9.227969"><ele>1080.7</ele><time>2016-02-20T08:53:40Z</time></trkpt><trkpt lat="45.879294" lon="9.227790"><ele>1082.1</ele><time>2016-02-20T08:53:52Z</time></trkpt><trkpt lat="45.879310" lon="9.227622"><ele>1083.5</ele><time>2016-02-20T08:54:03Z</time></trkpt><trkpt lat="45.879332" lon="9.227444"><ele>1085.5</ele><time>2016-02-20T08:54:16Z</time></trkpt><trkpt lat="45.879370" lon="9.227315"><ele>1087.4</ele><time>2016-02-20T08:54:27Z</time></trkpt><trkpt lat="45.879408" lon="9.227161"><ele>1088.8</ele><time>2016-02-20T08:54:38Z</time></trkpt><trkpt lat="45.879474" lon="9.226933"><ele>1090.8</ele><time>2016-02-20T08:54:53Z</time></trkpt><trkpt lat="45.879515" lon="9.226781"><ele>1092.7</ele><time>2016-02-20T08:55:03Z</time></trkpt><trkpt lat="45.879569" lon="9.226599"><ele>1094.6</ele><time>2016-02-20T08:55:14Z</time></trkpt><trkpt lat="45.879645" lon="9.226378"><ele>1096.0</ele><time>2016-02-20T08:55:28Z</time></trkpt><trkpt lat="45.879694" lon="9.226253"><ele>1097.0</ele><time>2016-02-20T08:55:36Z</time></trkpt><trkpt lat="45.879750" lon="9.226053"><ele>1098.9</ele><time>2016-02-20T08:55:49Z</time></trkpt><trkpt lat="45.879823" lon="9.225876"><ele>1100.4</ele><time>2016-02-20T08:56:01Z</time></trkpt><trkpt lat="45.879883" lon="9.225712"><ele>1101.8</ele><time>2016-02-20T08:56:11Z</time></trkpt><trkpt lat="45.879944" lon="9.225487"><ele>1102.8</ele><time>2016-02-20T08:56:23Z</time></trkpt><trkpt lat="45.879992" lon="9.225250"><ele>1104.2</ele><time>2016-02-20T08:56:36Z</time></trkpt><trkpt lat="45.880034" lon="9.225055"><ele>1105.2</ele><time>2016-02-20T08:56:48Z</time></trkpt><trkpt lat="45.880072" lon="9.224826"><ele>1105.2</ele><time>2016-02-20T08:57:02Z</time></trkpt><trkpt lat="45.880093" lon="9.224633"><ele>1105.7</ele><time>2016-02-20T08:57:15Z</time></trkpt><trkpt lat="45.880117" lon="9.224387"><ele>1107.1</ele><time>2016-02-20T08:57:29Z</time></trkpt><trkpt lat="45.880151" lon="9.224150"><ele>1109.5</ele><time>2016-02-20T08:57:42Z</time></trkpt><trkpt lat="45.880179" lon="9.223931"><ele>1111.4</ele><time>2016-02-20T08:57:55Z</time></trkpt><trkpt lat="45.880184" lon="9.223752"><ele>1112.9</ele><time>2016-02-20T08:58:06Z</time></trkpt><trkpt lat="45.880211" lon="9.223581"><ele>1113.8</ele><time>2016-02-20T08:58:17Z</time></trkpt><trkpt lat="45.880192" lon="9.223497"><ele>1113.8</ele><time>2016-02-20T08:58:28Z</time></trkpt><trkpt lat="45.880193" lon="9.223492"><ele>1114.3</ele><time>2016-02-20T08:58:32Z</time></trkpt><trkpt lat="45.880200" lon="9.223512"><ele>1114.3</ele><time>2016-02-20T08:58:34Z</time></trkpt><trkpt lat="45.880249" lon="9.223639"><ele>1114.3</ele><time>2016-02-20T08:58:46Z</time></trkpt><trkpt lat="45.880247" lon="9.223655"><ele>1114.3</ele><time>2016-02-20T08:59:02Z</time></trkpt><trkpt lat="45.880245" lon="9.223649"><ele>1115.8</ele><time>2016-02-20T08:59:03Z</time></trkpt><trkpt lat="45.880194" lon="9.223517"><ele>1113.8</ele><time>2016-02-20T08:59:12Z</time></trkpt><trkpt lat="45.880182" lon="9.223302"><ele>1113.8</ele><time>2016-02-20T08:59:25Z</time></trkpt><trkpt lat="45.880155" lon="9.223151"><ele>1114.8</ele><time>2016-02-20T08:59:36Z</time></trkpt><trkpt lat="45.880145" lon="9.223005"><ele>1115.8</ele><time>2016-02-20T08:59:47Z</time></trkpt><trkpt lat="45.880133" lon="9.222885"><ele>1116.2</ele><time>2016-02-20T08:59:58Z</time></trkpt><trkpt lat="45.880109" lon="9.222737"><ele>1117.2</ele><time>2016-02-20T09:00:08Z</time></trkpt><trkpt lat="45.880062" lon="9.222578"><ele>1118.2</ele><time>2016-02-20T09:00:20Z</time></trkpt><trkpt lat="45.880066" lon="9.222538"><ele>1118.2</ele><time>2016-02-20T09:00:22Z</time></trkpt><trkpt lat="45.880114" lon="9.222436"><ele>1119.6</ele><time>2016-02-20T09:00:34Z</time></trkpt><trkpt lat="45.880138" lon="9.222332"><ele>1120.1</ele><time>2016-02-20T09:00:46Z</time></trkpt><trkpt lat="45.880151" lon="9.222177"><ele>1121.5</ele><time>2016-02-20T09:00:58Z</time></trkpt><trkpt lat="45.880133" lon="9.222050"><ele>1123.4</ele><time>2016-02-20T09:01:11Z</time></trkpt><trkpt lat="45.880122" lon="9.221858"><ele>1125.8</ele><time>2016-02-20T09:01:27Z</time></trkpt><trkpt lat="45.880090" lon="9.221630"><ele>1127.3</ele><time>2016-02-20T09:01:41Z</time></trkpt><trkpt lat="45.880058" lon="9.221451"><ele>1128.7</ele><time>2016-02-20T09:01:53Z</time></trkpt><trkpt lat="45.880045" lon="9.221277"><ele>1128.7</ele><time>2016-02-20T09:02:06Z</time></trkpt><trkpt lat="45.880022" lon="9.221097"><ele>1129.2</ele><time>2016-02-20T09:02:18Z</time></trkpt><trkpt lat="45.879992" lon="9.220853"><ele>1129.7</ele><time>2016-02-20T09:02:30Z</time></trkpt><trkpt lat="45.879980" lon="9.220674"><ele>1131.1</ele><time>2016-02-20T09:02:42Z</time></trkpt><trkpt lat="45.879960" lon="9.220548"><ele>1131.6</ele><time>2016-02-20T09:02:54Z</time></trkpt><trkpt lat="45.879934" lon="9.220351"><ele>1132.1</ele><time>2016-02-20T09:03:08Z</time></trkpt><trkpt lat="45.879902" lon="9.220275"><ele>1132.1</ele><time>2016-02-20T09:03:14Z</time></trkpt><trkpt lat="45.879960" lon="9.220085"><ele>1133.1</ele><time>2016-02-20T09:03:27Z</time></trkpt><trkpt lat="45.879985" lon="9.220050"><ele>1133.1</ele><time>2016-02-20T09:03:31Z</time></trkpt><trkpt lat="45.879978" lon="9.220113"><ele>1134.5</ele><time>2016-02-20T09:03:42Z</time></trkpt><trkpt lat="45.879973" lon="9.220133"><ele>1134.5</ele><time>2016-02-20T09:03:44Z</time></trkpt><trkpt lat="45.879939" lon="9.220265"><ele>1135.9</ele><time>2016-02-20T09:03:56Z</time></trkpt><trkpt lat="45.879931" lon="9.220442"><ele>1138.8</ele><time>2016-02-20T09:04:10Z</time></trkpt><trkpt lat="45.879925" lon="9.220539"><ele>1139.3</ele><time>2016-02-20T09:04:21Z</time></trkpt><trkpt lat="45.879868" lon="9.220693"><ele>1142.2</ele><time>2016-02-20T09:04:37Z</time></trkpt><trkpt lat="45.879810" lon="9.220824"><ele>1144.6</ele><time>2016-02-20T09:04:51Z</time></trkpt><trkpt lat="45.879769" lon="9.220893"><ele>1146.5</ele><time>2016-02-20T09:05:04Z</time></trkpt><trkpt lat="45.879640" lon="9.220828"><ele>1149.4</ele><time>2016-02-20T09:05:19Z</time></trkpt><trkpt lat="45.879516" lon="9.220721"><ele>1150.8</ele><time>2016-02-20T09:05:33Z</time></trkpt><trkpt lat="45.879431" lon="9.220549"><ele>1153.2</ele><time>2016-02-20T09:05:47Z</time></trkpt><trkpt lat="45.879368" lon="9.220411"><ele>1155.2</ele><time>2016-02-20T09:06:02Z</time></trkpt><trkpt lat="45.879296" lon="9.220224"><ele>1158.1</ele><time>2016-02-20T09:06:18Z</time></trkpt><trkpt lat="45.879208" lon="9.220046"><ele>1160.5</ele><time>2016-02-20T09:06:35Z</time></trkpt><trkpt lat="45.879114" lon="9.219865"><ele>1163.3</ele><time>2016-02-20T09:06:52Z</time></trkpt><trkpt lat="45.878994" lon="9.219720"><ele>1165.7</ele><time>2016-02-20T09:07:07Z</time></trkpt><trkpt lat="45.878929" lon="9.219602"><ele>1169.1</ele><time>2016-02-20T09:07:23Z</time></trkpt><trkpt lat="45.878849" lon="9.219484"><ele>1171.0</ele><time>2016-02-20T09:07:38Z</time></trkpt><trkpt lat="45.878757" lon="9.219379"><ele>1173.9</ele><time>2016-02-20T09:07:52Z</time></trkpt><trkpt lat="45.878704" lon="9.219240"><ele>1177.3</ele><time>2016-02-20T09:08:08Z</time></trkpt><trkpt lat="45.878617" lon="9.219083"><ele>1179.7</ele><time>2016-02-20T09:08:26Z</time></trkpt><trkpt lat="45.878573" lon="9.218942"><ele>1182.6</ele><time>2016-02-20T09:08:42Z</time></trkpt><trkpt lat="45.878517" lon="9.218801"><ele>1184.5</ele><time>2016-02-20T09:08:58Z</time></trkpt><trkpt lat="45.878534" lon="9.218652"><ele>1185.4</ele><time>2016-02-20T09:09:10Z</time></trkpt><trkpt lat="45.878572" lon="9.218496"><ele>1187.9</ele><time>2016-02-20T09:09:24Z</time></trkpt><trkpt lat="45.878494" lon="9.218277"><ele>1190.3</ele><time>2016-02-20T09:09:42Z</time></trkpt><trkpt lat="45.878439" lon="9.218126"><ele>1192.2</ele><time>2016-02-20T09:09:56Z</time></trkpt><trkpt lat="45.878289" lon="9.217935"><ele>1192.2</ele><time>2016-02-20T09:10:15Z</time></trkpt><trkpt lat="45.878205" lon="9.217889"><ele>1190.7</ele><time>2016-02-20T09:10:23Z</time></trkpt><trkpt lat="45.878032" lon="9.217804"><ele>1190.7</ele><time>2016-02-20T09:10:38Z</time></trkpt><trkpt lat="45.877845" lon="9.217621"><ele>1190.3</ele><time>2016-02-20T09:10:56Z</time></trkpt><trkpt lat="45.877678" lon="9.217500"><ele>1190.3</ele><time>2016-02-20T09:11:13Z</time></trkpt><trkpt lat="45.877507" lon="9.217373"><ele>1191.7</ele><time>2016-02-20T09:11:29Z</time></trkpt><trkpt lat="45.877290" lon="9.217251"><ele>1193.1</ele><time>2016-02-20T09:11:48Z</time></trkpt><trkpt lat="45.877174" lon="9.217201"><ele>1196.5</ele><time>2016-02-20T09:12:05Z</time></trkpt><trkpt lat="45.877015" lon="9.217179"><ele>1199.4</ele><time>2016-02-20T09:12:25Z</time></trkpt><trkpt lat="45.876966" lon="9.217145"><ele>1201.3</ele><time>2016-02-20T09:12:43Z</time></trkpt><trkpt lat="45.876895" lon="9.217141"><ele>1202.3</ele><time>2016-02-20T09:13:03Z</time></trkpt><trkpt lat="45.876777" lon="9.217110"><ele>1205.2</ele><time>2016-02-20T09:13:17Z</time></trkpt><trkpt lat="45.876646" lon="9.217022"><ele>1208.0</ele><time>2016-02-20T09:13:32Z</time></trkpt><trkpt lat="45.876475" lon="9.216920"><ele>1210.4</ele><time>2016-02-20T09:13:50Z</time></trkpt><trkpt lat="45.876343" lon="9.216763"><ele>1213.8</ele><time>2016-02-20T09:14:06Z</time></trkpt><trkpt lat="45.876277" lon="9.216691"><ele>1214.8</ele><time>2016-02-20T09:14:19Z</time></trkpt><trkpt lat="45.876262" lon="9.216651"><ele>1215.2</ele><time>2016-02-20T09:14:46Z</time></trkpt><trkpt lat="45.876238" lon="9.216605"><ele>1215.2</ele><time>2016-02-20T09:14:59Z</time></trkpt><trkpt lat="45.876262" lon="9.216544"><ele>1215.2</ele><time>2016-02-20T09:15:17Z</time></trkpt><trkpt lat="45.876292" lon="9.216506"><ele>1215.7</ele><time>2016-02-20T09:15:34Z</time></trkpt><trkpt lat="45.876278" lon="9.216383"><ele>1216.2</ele><time>2016-02-20T09:15:42Z</time></trkpt><trkpt lat="45.876270" lon="9.216097"><ele>1217.7</ele><time>2016-02-20T09:15:59Z</time></trkpt><trkpt lat="45.876272" lon="9.215869"><ele>1218.6</ele><time>2016-02-20T09:16:12Z</time></trkpt><trkpt lat="45.876273" lon="9.215705"><ele>1220.5</ele><time>2016-02-20T09:16:22Z</time></trkpt><trkpt lat="45.876274" lon="9.215591"><ele>1221.0</ele><time>2016-02-20T09:16:34Z</time></trkpt><trkpt lat="45.876289" lon="9.215563"><ele>1221.5</ele><time>2016-02-20T09:16:50Z</time></trkpt><trkpt lat="45.876304" lon="9.215433"><ele>1222.5</ele><time>2016-02-20T09:17:06Z</time></trkpt><trkpt lat="45.876340" lon="9.215279"><ele>1224.9</ele><time>2016-02-20T09:17:19Z</time></trkpt><trkpt lat="45.876365" lon="9.215171"><ele>1227.3</ele><time>2016-02-20T09:17:31Z</time></trkpt><trkpt lat="45.876400" lon="9.215019"><ele>1229.2</ele><time>2016-02-20T09:17:43Z</time></trkpt><trkpt lat="45.876390" lon="9.214884"><ele>1232.1</ele><time>2016-02-20T09:17:58Z</time></trkpt><trkpt lat="45.876401" lon="9.214674"><ele>1235.0</ele><time>2016-02-20T09:18:16Z</time></trkpt><trkpt lat="45.876436" lon="9.214503"><ele>1238.3</ele><time>2016-02-20T09:18:32Z</time></trkpt><trkpt lat="45.876526" lon="9.214336"><ele>1241.2</ele><time>2016-02-20T09:18:50Z</time></trkpt><trkpt lat="45.876618" lon="9.214246"><ele>1242.6</ele><time>2016-02-20T09:19:04Z</time></trkpt><trkpt lat="45.876723" lon="9.214164"><ele>1244.6</ele><time>2016-02-20T09:19:17Z</time></trkpt><trkpt lat="45.876837" lon="9.214011"><ele>1246.5</ele><time>2016-02-20T09:19:32Z</time></trkpt><trkpt lat="45.876901" lon="9.213942"><ele>1247.9</ele><time>2016-02-20T09:19:44Z</time></trkpt><trkpt lat="45.876978" lon="9.213816"><ele>1250.3</ele><time>2016-02-20T09:19:57Z</time></trkpt><trkpt lat="45.877059" lon="9.213650"><ele>1253.2</ele><time>2016-02-20T09:20:12Z</time></trkpt><trkpt lat="45.877142" lon="9.213494"><ele>1256.6</ele><time>2016-02-20T09:20:29Z</time></trkpt><trkpt lat="45.877192" lon="9.213346"><ele>1259.0</ele><time>2016-02-20T09:20:46Z</time></trkpt><trkpt lat="45.877173" lon="9.213247"><ele>1262.4</ele><time>2016-02-20T09:21:01Z</time></trkpt><trkpt lat="45.877203" lon="9.213134"><ele>1265.2</ele><time>2016-02-20T09:21:18Z</time></trkpt><trkpt lat="45.877272" lon="9.212937"><ele>1268.1</ele><time>2016-02-20T09:21:35Z</time></trkpt><trkpt lat="45.877372" lon="9.212797"><ele>1271.5</ele><time>2016-02-20T09:21:52Z</time></trkpt><trkpt lat="45.877487" lon="9.212717"><ele>1273.4</ele><time>2016-02-20T09:22:06Z</time></trkpt><trkpt lat="45.877555" lon="9.212646"><ele>1275.8</ele><time>2016-02-20T09:22:22Z</time></trkpt><trkpt lat="45.877588" lon="9.212540"><ele>1279.2</ele><time>2016-02-20T09:22:37Z</time></trkpt><trkpt lat="45.877604" lon="9.212386"><ele>1282.5</ele><time>2016-02-20T09:22:55Z</time></trkpt><trkpt lat="45.877610" lon="9.212262"><ele>1285.4</ele><time>2016-02-20T09:23:10Z</time></trkpt><trkpt lat="45.877609" lon="9.212177"><ele>1287.3</ele><time>2016-02-20T09:23:23Z</time></trkpt><trkpt lat="45.877643" lon="9.212042"><ele>1289.8</ele><time>2016-02-20T09:23:36Z</time></trkpt><trkpt lat="45.877673" lon="9.211924"><ele>1291.7</ele><time>2016-02-20T09:23:50Z</time></trkpt><trkpt lat="45.877730" lon="9.211778"><ele>1294.6</ele><time>2016-02-20T09:24:05Z</time></trkpt><trkpt lat="45.877774" lon="9.211692"><ele>1297.4</ele><time>2016-02-20T09:24:19Z</time></trkpt><trkpt lat="45.877819" lon="9.211606"><ele>1299.4</ele><time>2016-02-20T09:24:33Z</time></trkpt><trkpt lat="45.877849" lon="9.211497"><ele>1302.2</ele><time>2016-02-20T09:24:46Z</time></trkpt><trkpt lat="45.877882" lon="9.211384"><ele>1304.7</ele><time>2016-02-20T09:24:59Z</time></trkpt><trkpt lat="45.877895" lon="9.211260"><ele>1307.5</ele><time>2016-02-20T09:25:14Z</time></trkpt><trkpt lat="45.877914" lon="9.211134"><ele>1310.4</ele><time>2016-02-20T09:25:31Z</time></trkpt><trkpt lat="45.877934" lon="9.211011"><ele>1313.3</ele><time>2016-02-20T09:25:49Z</time></trkpt><trkpt lat="45.877988" lon="9.210904"><ele>1315.7</ele><time>2016-02-20T09:26:03Z</time></trkpt><trkpt lat="45.878025" lon="9.210807"><ele>1318.1</ele><time>2016-02-20T09:26:16Z</time></trkpt><trkpt lat="45.878062" lon="9.210704"><ele>1320.0</ele><time>2016-02-20T09:26:29Z</time></trkpt><trkpt lat="45.878108" lon="9.210609"><ele>1322.4</ele><time>2016-02-20T09:26:43Z</time></trkpt><trkpt lat="45.878080" lon="9.210486"><ele>1325.3</ele><time>2016-02-20T09:26:57Z</time></trkpt><trkpt lat="45.878042" lon="9.210402"><ele>1327.7</ele><time>2016-02-20T09:27:12Z</time></trkpt><trkpt lat="45.878038" lon="9.210406"><ele>1328.2</ele><time>2016-02-20T09:27:27Z</time></trkpt><trkpt lat="45.878053" lon="9.210408"><ele>1328.2</ele><time>2016-02-20T09:27:46Z</time></trkpt><trkpt lat="45.878038" lon="9.210383"><ele>1328.2</ele><time>2016-02-20T09:28:07Z</time></trkpt><trkpt lat="45.878022" lon="9.210339"><ele>1328.2</ele><time>2016-02-20T09:28:33Z</time></trkpt><trkpt lat="45.878015" lon="9.210347"><ele>1328.7</ele><time>2016-02-20T09:28:49Z</time></trkpt><trkpt lat="45.878057" lon="9.210379"><ele>1328.7</ele><time>2016-02-20T09:29:09Z</time></trkpt><trkpt lat="45.878021" lon="9.210399"><ele>1328.7</ele><time>2016-02-20T09:29:24Z</time></trkpt><trkpt lat="45.877981" lon="9.210413"><ele>1329.2</ele><time>2016-02-20T09:29:35Z</time></trkpt><trkpt lat="45.877966" lon="9.210387"><ele>1329.2</ele><time>2016-02-20T09:29:48Z</time></trkpt><trkpt lat="45.877989" lon="9.210415"><ele>1329.2</ele><time>2016-02-20T09:29:55Z</time></trkpt><trkpt lat="45.877877" lon="9.210513"><ele>1328.2</ele><time>2016-02-20T09:30:09Z</time></trkpt><trkpt lat="45.877829" lon="9.210563"><ele>1329.2</ele><time>2016-02-20T09:30:16Z</time></trkpt><trkpt lat="45.877797" lon="9.210599"><ele>1330.1</ele><time>2016-02-20T09:30:28Z</time></trkpt><trkpt lat="45.877694" lon="9.210693"><ele>1330.6</ele><time>2016-02-20T09:30:42Z</time></trkpt><trkpt lat="45.877519" lon="9.210868"><ele>1331.6</ele><time>2016-02-20T09:30:57Z</time></trkpt><trkpt lat="45.877400" lon="9.210970"><ele>1332.0</ele><time>2016-02-20T09:31:11Z</time></trkpt><trkpt lat="45.877381" lon="9.210987"><ele>1332.0</ele><time>2016-02-20T09:31:26Z</time></trkpt><trkpt lat="45.877325" lon="9.211037"><ele>1332.0</ele><time>2016-02-20T09:31:39Z</time></trkpt><trkpt lat="45.877194" lon="9.211131"><ele>1332.0</ele><time>2016-02-20T09:31:51Z</time></trkpt><trkpt lat="45.877178" lon="9.211141"><ele>1332.0</ele><time>2016-02-20T09:32:02Z</time></trkpt><trkpt lat="45.877086" lon="9.211191"><ele>1332.0</ele><time>2016-02-20T09:32:15Z</time></trkpt><trkpt lat="45.876977" lon="9.211270"><ele>1330.1</ele><time>2016-02-20T09:32:27Z</time></trkpt><trkpt lat="45.876981" lon="9.211244"><ele>1330.1</ele><time>2016-02-20T09:32:38Z</time></trkpt><trkpt lat="45.876968" lon="9.211225"><ele>1330.1</ele><time>2016-02-20T09:32:41Z</time></trkpt><trkpt lat="45.876812" lon="9.211139"><ele>1327.2</ele><time>2016-02-20T09:32:55Z</time></trkpt><trkpt lat="45.876659" lon="9.211101"><ele>1325.8</ele><time>2016-02-20T09:33:08Z</time></trkpt><trkpt lat="45.876505" lon="9.211061"><ele>1325.3</ele><time>2016-02-20T09:33:21Z</time></trkpt><trkpt lat="45.876419" lon="9.211027"><ele>1324.8</ele><time>2016-02-20T09:33:37Z</time></trkpt><trkpt lat="45.876267" lon="9.210973"><ele>1323.9</ele><time>2016-02-20T09:33:49Z</time></trkpt><trkpt lat="45.876186" lon="9.210914"><ele>1323.4</ele><time>2016-02-20T09:33:58Z</time></trkpt><trkpt lat="45.876040" lon="9.210733"><ele>1323.4</ele><time>2016-02-20T09:34:13Z</time></trkpt><trkpt lat="45.875915" lon="9.210553"><ele>1322.9</ele><time>2016-02-20T09:34:26Z</time></trkpt><trkpt lat="45.875802" lon="9.210374"><ele>1322.4</ele><time>2016-02-20T09:34:39Z</time></trkpt><trkpt lat="45.875702" lon="9.210222"><ele>1323.9</ele><time>2016-02-20T09:34:51Z</time></trkpt><trkpt lat="45.875558" lon="9.210038"><ele>1324.4</ele><time>2016-02-20T09:35:05Z</time></trkpt><trkpt lat="45.875416" lon="9.209850"><ele>1322.9</ele><time>2016-02-20T09:35:20Z</time></trkpt><trkpt lat="45.875326" lon="9.209725"><ele>1322.4</ele><time>2016-02-20T09:35:31Z</time></trkpt><trkpt lat="45.875228" lon="9.209588"><ele>1322.4</ele><time>2016-02-20T09:35:43Z</time></trkpt><trkpt lat="45.875138" lon="9.209420"><ele>1322.9</ele><time>2016-02-20T09:35:55Z</time></trkpt><trkpt lat="45.875139" lon="9.209417"><ele>1322.9</ele><time>2016-02-20T09:36:05Z</time></trkpt><trkpt lat="45.875152" lon="9.209422"><ele>1322.9</ele><time>2016-02-20T09:36:24Z</time></trkpt><trkpt lat="45.875142" lon="9.209387"><ele>1322.9</ele><time>2016-02-20T09:36:33Z</time></trkpt><trkpt lat="45.875127" lon="9.209381"><ele>1322.9</ele><time>2016-02-20T09:36:42Z</time></trkpt><trkpt lat="45.875006" lon="9.209240"><ele>1323.4</ele><time>2016-02-20T09:36:56Z</time></trkpt><trkpt lat="45.874909" lon="9.209153"><ele>1323.4</ele><time>2016-02-20T09:37:07Z</time></trkpt><trkpt lat="45.874801" lon="9.209098"><ele>1324.8</ele><time>2016-02-20T09:37:16Z</time></trkpt><trkpt lat="45.874675" lon="9.208972"><ele>1327.7</ele><time>2016-02-20T09:37:30Z</time></trkpt><trkpt lat="45.874565" lon="9.208839"><ele>1330.6</ele><time>2016-02-20T09:37:45Z</time></trkpt><trkpt lat="45.874537" lon="9.208822"><ele>1331.6</ele><time>2016-02-20T09:37:48Z</time></trkpt><trkpt lat="45.874477" lon="9.208779"><ele>1332.0</ele><time>2016-02-20T09:38:02Z</time></trkpt><trkpt lat="45.874475" lon="9.208795"><ele>1332.0</ele><time>2016-02-20T09:38:06Z</time></trkpt><trkpt lat="45.874455" lon="9.208766"><ele>1332.5</ele><time>2016-02-20T09:38:18Z</time></trkpt><trkpt lat="45.874438" lon="9.208756"><ele>1332.5</ele><time>2016-02-20T09:38:35Z</time></trkpt><trkpt lat="45.874337" lon="9.208673"><ele>1329.6</ele><time>2016-02-20T09:38:50Z</time></trkpt><trkpt lat="45.874244" lon="9.208629"><ele>1328.2</ele><time>2016-02-20T09:39:03Z</time></trkpt><trkpt lat="45.874150" lon="9.208603"><ele>1326.3</ele><time>2016-02-20T09:39:16Z</time></trkpt><trkpt lat="45.873981" lon="9.208596"><ele>1323.9</ele><time>2016-02-20T09:39:30Z</time></trkpt><trkpt lat="45.873833" lon="9.208570"><ele>1321.0</ele><time>2016-02-20T09:39:44Z</time></trkpt><trkpt lat="45.873696" lon="9.208538"><ele>1318.6</ele><time>2016-02-20T09:39:58Z</time></trkpt><trkpt lat="45.873653" lon="9.208529"><ele>1318.1</ele><time>2016-02-20T09:40:02Z</time></trkpt><trkpt lat="45.873478" lon="9.208501"><ele>1314.7</ele><time>2016-02-20T09:40:17Z</time></trkpt><trkpt lat="45.873252" lon="9.208489"><ele>1312.3</ele><time>2016-02-20T09:40:34Z</time></trkpt><trkpt lat="45.873055" lon="9.208493"><ele>1310.4</ele><time>2016-02-20T09:40:49Z</time></trkpt><trkpt lat="45.872898" lon="9.208511"><ele>1309.0</ele><time>2016-02-20T09:41:01Z</time></trkpt><trkpt lat="45.872754" lon="9.208503"><ele>1307.1</ele><time>2016-02-20T09:41:12Z</time></trkpt><trkpt lat="45.872592" lon="9.208497"><ele>1305.6</ele><time>2016-02-20T09:41:24Z</time></trkpt><trkpt lat="45.872411" lon="9.208507"><ele>1303.7</ele><time>2016-02-20T09:41:38Z</time></trkpt><trkpt lat="45.872254" lon="9.208487"><ele>1300.8</ele><time>2016-02-20T09:41:51Z</time></trkpt><trkpt lat="45.872082" lon="9.208477"><ele>1298.9</ele><time>2016-02-20T09:42:05Z</time></trkpt><trkpt lat="45.872077" lon="9.208481"><ele>1298.9</ele><time>2016-02-20T09:42:08Z</time></trkpt><trkpt lat="45.871894" lon="9.208494"><ele>1297.9</ele><time>2016-02-20T09:42:22Z</time></trkpt><trkpt lat="45.871719" lon="9.208499"><ele>1296.5</ele><time>2016-02-20T09:42:35Z</time></trkpt><trkpt lat="45.871525" lon="9.208485"><ele>1293.6</ele><time>2016-02-20T09:42:50Z</time></trkpt><trkpt lat="45.871391" lon="9.208454"><ele>1292.2</ele><time>2016-02-20T09:43:03Z</time></trkpt><trkpt lat="45.871378" lon="9.208472"><ele>1291.7</ele><time>2016-02-20T09:43:13Z</time></trkpt><trkpt lat="45.871388" lon="9.208469"><ele>1292.6</ele><time>2016-02-20T09:43:30Z</time></trkpt><trkpt lat="45.871358" lon="9.208403"><ele>1291.2</ele><time>2016-02-20T09:43:42Z</time></trkpt><trkpt lat="45.871285" lon="9.208351"><ele>1289.3</ele><time>2016-02-20T09:43:50Z</time></trkpt><trkpt lat="45.871146" lon="9.208228"><ele>1287.3</ele><time>2016-02-20T09:44:05Z</time></trkpt><trkpt lat="45.871055" lon="9.208155"><ele>1284.9</ele><time>2016-02-20T09:44:18Z</time></trkpt><trkpt lat="45.871058" lon="9.208186"><ele>1284.9</ele><time>2016-02-20T09:44:32Z</time></trkpt><trkpt lat="45.871053" lon="9.208184"><ele>1284.9</ele><time>2016-02-20T09:44:41Z</time></trkpt><trkpt lat="45.871044" lon="9.208113"><ele>1284.9</ele><time>2016-02-20T09:44:45Z</time></trkpt><trkpt lat="45.870911" lon="9.207913"><ele>1283.0</ele><time>2016-02-20T09:44:59Z</time></trkpt><trkpt lat="45.870759" lon="9.207704"><ele>1282.1</ele><time>2016-02-20T09:45:14Z</time></trkpt><trkpt lat="45.870661" lon="9.207560"><ele>1282.5</ele><time>2016-02-20T09:45:27Z</time></trkpt><trkpt lat="45.870662" lon="9.207553"><ele>1282.5</ele><time>2016-02-20T09:45:43Z</time></trkpt><trkpt lat="45.870661" lon="9.207549"><ele>1282.5</ele><time>2016-02-20T09:45:45Z</time></trkpt><trkpt lat="45.870611" lon="9.207475"><ele>1282.5</ele><time>2016-02-20T09:45:53Z</time></trkpt><trkpt lat="45.870516" lon="9.207406"><ele>1284.0</ele><time>2016-02-20T09:46:01Z</time></trkpt><trkpt lat="45.870371" lon="9.207304"><ele>1285.4</ele><time>2016-02-20T09:46:14Z</time></trkpt><trkpt lat="45.870273" lon="9.207199"><ele>1287.3</ele><time>2016-02-20T09:46:25Z</time></trkpt><trkpt lat="45.870178" lon="9.207142"><ele>1290.2</ele><time>2016-02-20T09:46:37Z</time></trkpt><trkpt lat="45.870118" lon="9.207060"><ele>1291.7</ele><time>2016-02-20T09:46:48Z</time></trkpt><trkpt lat="45.870068" lon="9.207052"><ele>1293.6</ele><time>2016-02-20T09:46:59Z</time></trkpt><trkpt lat="45.870007" lon="9.207040"><ele>1295.5</ele><time>2016-02-20T09:47:09Z</time></trkpt><trkpt lat="45.869947" lon="9.207009"><ele>1297.9</ele><time>2016-02-20T09:47:22Z</time></trkpt><trkpt lat="45.869887" lon="9.206947"><ele>1300.3</ele><time>2016-02-20T09:47:35Z</time></trkpt><trkpt lat="45.869813" lon="9.206941"><ele>1301.8</ele><time>2016-02-20T09:47:47Z</time></trkpt><trkpt lat="45.869725" lon="9.206896"><ele>1304.2</ele><time>2016-02-20T09:47:59Z</time></trkpt><trkpt lat="45.869636" lon="9.206857"><ele>1305.6</ele><time>2016-02-20T09:48:11Z</time></trkpt><trkpt lat="45.869542" lon="9.206850"><ele>1308.0</ele><time>2016-02-20T09:48:24Z</time></trkpt><trkpt lat="45.869439" lon="9.206874"><ele>1309.5</ele><time>2016-02-20T09:48:36Z</time></trkpt><trkpt lat="45.869333" lon="9.206808"><ele>1310.9</ele><time>2016-02-20T09:48:47Z</time></trkpt><trkpt lat="45.869229" lon="9.206746"><ele>1311.4</ele><time>2016-02-20T09:48:58Z</time></trkpt><trkpt lat="45.869136" lon="9.206642"><ele>1312.3</ele><time>2016-02-20T09:49:10Z</time></trkpt><trkpt lat="45.869018" lon="9.206535"><ele>1312.3</ele><time>2016-02-20T09:49:23Z</time></trkpt><trkpt lat="45.868961" lon="9.206483"><ele>1312.3</ele><time>2016-02-20T09:49:33Z</time></trkpt><trkpt lat="45.868986" lon="9.206508"><ele>1312.3</ele><time>2016-02-20T09:49:48Z</time></trkpt><trkpt lat="45.868947" lon="9.206444"><ele>1312.3</ele><time>2016-02-20T09:50:09Z</time></trkpt><trkpt lat="45.868818" lon="9.206308"><ele>1313.3</ele><time>2016-02-20T09:50:22Z</time></trkpt><trkpt lat="45.868715" lon="9.206251"><ele>1315.7</ele><time>2016-02-20T09:50:34Z</time></trkpt><trkpt lat="45.868599" lon="9.206194"><ele>1317.6</ele><time>2016-02-20T09:50:48Z</time></trkpt><trkpt lat="45.868517" lon="9.206119"><ele>1319.6</ele><time>2016-02-20T09:50:58Z</time></trkpt><trkpt lat="45.868413" lon="9.206087"><ele>1322.4</ele><time>2016-02-20T09:51:11Z</time></trkpt><trkpt lat="45.868358" lon="9.206045"><ele>1324.4</ele><time>2016-02-20T09:51:22Z</time></trkpt><trkpt lat="45.868305" lon="9.206021"><ele>1326.3</ele><time>2016-02-20T09:51:33Z</time></trkpt><trkpt lat="45.868277" lon="9.205956"><ele>1327.7</ele><time>2016-02-20T09:51:42Z</time></trkpt><trkpt lat="45.868226" lon="9.205938"><ele>1330.1</ele><time>2016-02-20T09:51:54Z</time></trkpt><trkpt lat="45.868183" lon="9.205875"><ele>1332.0</ele><time>2016-02-20T09:52:06Z</time></trkpt><trkpt lat="45.868152" lon="9.205870"><ele>1333.5</ele><time>2016-02-20T09:52:17Z</time></trkpt><trkpt lat="45.868109" lon="9.205870"><ele>1335.9</ele><time>2016-02-20T09:52:30Z</time></trkpt><trkpt lat="45.868081" lon="9.205810"><ele>1338.3</ele><time>2016-02-20T09:52:42Z</time></trkpt><trkpt lat="45.868045" lon="9.205767"><ele>1340.2</ele><time>2016-02-20T09:52:53Z</time></trkpt><trkpt lat="45.868021" lon="9.205778"><ele>1342.1</ele><time>2016-02-20T09:53:03Z</time></trkpt><trkpt lat="45.867986" lon="9.205771"><ele>1343.6</ele><time>2016-02-20T09:53:14Z</time></trkpt><trkpt lat="45.867967" lon="9.205754"><ele>1344.5</ele><time>2016-02-20T09:53:24Z</time></trkpt><trkpt lat="45.867924" lon="9.205718"><ele>1346.9</ele><time>2016-02-20T09:53:35Z</time></trkpt><trkpt lat="45.867893" lon="9.205707"><ele>1347.9</ele><time>2016-02-20T09:53:45Z</time></trkpt><trkpt lat="45.867859" lon="9.205735"><ele>1349.8</ele><time>2016-02-20T09:53:56Z</time></trkpt><trkpt lat="45.867802" lon="9.205724"><ele>1351.8</ele><time>2016-02-20T09:54:08Z</time></trkpt><trkpt lat="45.867761" lon="9.205705"><ele>1353.2</ele><time>2016-02-20T09:54:19Z</time></trkpt><trkpt lat="45.867725" lon="9.205652"><ele>1355.1</ele><time>2016-02-20T09:54:29Z</time></trkpt><trkpt lat="45.867664" lon="9.205620"><ele>1356.6</ele><time>2016-02-20T09:54:40Z</time></trkpt><trkpt lat="45.867669" lon="9.205616"><ele>1357.0</ele><time>2016-02-20T09:54:51Z</time></trkpt><trkpt lat="45.867664" lon="9.205604"><ele>1357.5</ele><time>2016-02-20T09:55:16Z</time></trkpt><trkpt lat="45.867616" lon="9.205551"><ele>1359.0</ele><time>2016-02-20T09:55:29Z</time></trkpt><trkpt lat="45.867558" lon="9.205490"><ele>1360.9</ele><time>2016-02-20T09:55:41Z</time></trkpt><trkpt lat="45.867466" lon="9.205404"><ele>1363.8</ele><time>2016-02-20T09:55:55Z</time></trkpt><trkpt lat="45.867376" lon="9.205338"><ele>1365.7</ele><time>2016-02-20T09:56:08Z</time></trkpt><trkpt lat="45.867297" lon="9.205286"><ele>1368.1</ele><time>2016-02-20T09:56:19Z</time></trkpt><trkpt lat="45.867234" lon="9.205228"><ele>1370.0</ele><time>2016-02-20T09:56:31Z</time></trkpt><trkpt lat="45.867169" lon="9.205137"><ele>1372.4</ele><time>2016-02-20T09:56:44Z</time></trkpt><trkpt lat="45.867129" lon="9.205084"><ele>1374.8</ele><time>2016-02-20T09:56:56Z</time></trkpt><trkpt lat="45.867102" lon="9.205038"><ele>1377.7</ele><time>2016-02-20T09:57:10Z</time></trkpt><trkpt lat="45.867096" lon="9.205005"><ele>1379.2</ele><time>2016-02-20T09:57:18Z</time></trkpt><trkpt lat="45.867051" lon="9.204965"><ele>1382.0</ele><time>2016-02-20T09:57:30Z</time></trkpt><trkpt lat="45.867042" lon="9.204903"><ele>1383.0</ele><time>2016-02-20T09:57:41Z</time></trkpt><trkpt lat="45.867034" lon="9.204847"><ele>1384.4</ele><time>2016-02-20T09:57:51Z</time></trkpt><trkpt lat="45.867001" lon="9.204789"><ele>1386.8</ele><time>2016-02-20T09:58:03Z</time></trkpt><trkpt lat="45.866957" lon="9.204719"><ele>1388.8</ele><time>2016-02-20T09:58:14Z</time></trkpt><trkpt lat="45.866906" lon="9.204652"><ele>1391.2</ele><time>2016-02-20T09:58:25Z</time></trkpt><trkpt lat="45.866891" lon="9.204559"><ele>1393.1</ele><time>2016-02-20T09:58:35Z</time></trkpt><trkpt lat="45.866870" lon="9.204484"><ele>1394.5</ele><time>2016-02-20T09:58:43Z</time></trkpt><trkpt lat="45.866859" lon="9.204418"><ele>1395.0</ele><time>2016-02-20T09:58:49Z</time></trkpt><trkpt lat="45.866788" lon="9.204310"><ele>1395.0</ele><time>2016-02-20T09:59:03Z</time></trkpt><trkpt lat="45.866756" lon="9.204294"><ele>1395.0</ele><time>2016-02-20T09:59:19Z</time></trkpt><trkpt lat="45.866738" lon="9.204286"><ele>1394.1</ele><time>2016-02-20T09:59:32Z</time></trkpt><trkpt lat="45.866741" lon="9.204277"><ele>1393.1</ele><time>2016-02-20T09:59:47Z</time></trkpt><trkpt lat="45.866757" lon="9.204284"><ele>1393.1</ele><time>2016-02-20T10:00:01Z</time></trkpt><trkpt lat="45.866751" lon="9.204301"><ele>1393.1</ele><time>2016-02-20T10:00:14Z</time></trkpt><trkpt lat="45.866744" lon="9.204292"><ele>1393.1</ele><time>2016-02-20T10:00:29Z</time></trkpt><trkpt lat="45.866746" lon="9.204257"><ele>1393.1</ele><time>2016-02-20T10:00:54Z</time></trkpt><trkpt lat="45.866748" lon="9.204250"><ele>1393.1</ele><time>2016-02-20T10:01:12Z</time></trkpt><trkpt lat="45.866754" lon="9.204262"><ele>1394.5</ele><time>2016-02-20T10:01:29Z</time></trkpt><trkpt lat="45.866755" lon="9.204275"><ele>1394.5</ele><time>2016-02-20T10:01:55Z</time></trkpt><trkpt lat="45.866743" lon="9.204259"><ele>1393.6</ele><time>2016-02-20T10:02:12Z</time></trkpt><trkpt lat="45.866739" lon="9.204125"><ele>1392.6</ele><time>2016-02-20T10:02:24Z</time></trkpt><trkpt lat="45.866646" lon="9.203960"><ele>1390.2</ele><time>2016-02-20T10:02:37Z</time></trkpt><trkpt lat="45.866620" lon="9.203934"><ele>1390.2</ele><time>2016-02-20T10:02:40Z</time></trkpt><trkpt lat="45.866562" lon="9.203916"><ele>1389.7</ele><time>2016-02-20T10:02:46Z</time></trkpt><trkpt lat="45.866474" lon="9.203798"><ele>1388.3</ele><time>2016-02-20T10:02:57Z</time></trkpt><trkpt lat="45.866362" lon="9.203678"><ele>1385.9</ele><time>2016-02-20T10:03:10Z</time></trkpt><trkpt lat="45.866277" lon="9.203632"><ele>1384.4</ele><time>2016-02-20T10:03:22Z</time></trkpt><trkpt lat="45.866146" lon="9.203491"><ele>1382.0</ele><time>2016-02-20T10:03:36Z</time></trkpt><trkpt lat="45.866044" lon="9.203391"><ele>1381.6</ele><time>2016-02-20T10:03:47Z</time></trkpt><trkpt lat="45.866034" lon="9.203353"><ele>1381.6</ele><time>2016-02-20T10:03:50Z</time></trkpt><trkpt lat="45.865946" lon="9.203178"><ele>1381.6</ele><time>2016-02-20T10:04:04Z</time></trkpt><trkpt lat="45.865857" lon="9.203034"><ele>1383.0</ele><time>2016-02-20T10:04:15Z</time></trkpt><trkpt lat="45.865737" lon="9.202836"><ele>1384.4</ele><time>2016-02-20T10:04:30Z</time></trkpt><trkpt lat="45.865644" lon="9.202719"><ele>1386.4</ele><time>2016-02-20T10:04:43Z</time></trkpt><trkpt lat="45.865539" lon="9.202615"><ele>1389.2</ele><time>2016-02-20T10:05:00Z</time></trkpt><trkpt lat="45.865470" lon="9.202548"><ele>1391.2</ele><time>2016-02-20T10:05:13Z</time></trkpt><trkpt lat="45.865395" lon="9.202469"><ele>1393.6</ele><time>2016-02-20T10:05:27Z</time></trkpt><trkpt lat="45.865330" lon="9.202413"><ele>1396.5</ele><time>2016-02-20T10:05:42Z</time></trkpt><trkpt lat="45.865287" lon="9.202356"><ele>1398.9</ele><time>2016-02-20T10:05:55Z</time></trkpt><trkpt lat="45.865236" lon="9.202312"><ele>1401.7</ele><time>2016-02-20T10:06:08Z</time></trkpt><trkpt lat="45.865192" lon="9.202274"><ele>1403.2</ele><time>2016-02-20T10:06:20Z</time></trkpt><trkpt lat="45.865148" lon="9.202238"><ele>1405.6</ele><time>2016-02-20T10:06:35Z</time></trkpt><trkpt lat="45.865111" lon="9.202212"><ele>1407.0</ele><time>2016-02-20T10:06:48Z</time></trkpt><trkpt lat="45.865068" lon="9.202153"><ele>1409.0</ele><time>2016-02-20T10:07:02Z</time></trkpt><trkpt lat="45.865028" lon="9.202109"><ele>1411.4</ele><time>2016-02-20T10:07:14Z</time></trkpt><trkpt lat="45.864964" lon="9.202059"><ele>1414.2</ele><time>2016-02-20T10:07:30Z</time></trkpt><trkpt lat="45.864892" lon="9.202041"><ele>1417.1</ele><time>2016-02-20T10:07:45Z</time></trkpt><trkpt lat="45.864804" lon="9.202001"><ele>1419.0</ele><time>2016-02-20T10:07:58Z</time></trkpt><trkpt lat="45.864698" lon="9.202011"><ele>1421.5</ele><time>2016-02-20T10:08:11Z</time></trkpt><trkpt lat="45.864692" lon="9.202013"><ele>1421.5</ele><time>2016-02-20T10:08:12Z</time></trkpt><trkpt lat="45.864621" lon="9.202016"><ele>1422.4</ele><time>2016-02-20T10:08:19Z</time></trkpt><trkpt lat="45.864585" lon="9.202022"><ele>1422.4</ele><time>2016-02-20T10:08:32Z</time></trkpt><trkpt lat="45.864545" lon="9.202016"><ele>1422.4</ele><time>2016-02-20T10:08:40Z</time></trkpt><trkpt lat="45.864475" lon="9.202020"><ele>1422.9</ele><time>2016-02-20T10:08:47Z</time></trkpt><trkpt lat="45.864323" lon="9.201989"><ele>1423.4</ele><time>2016-02-20T10:09:01Z</time></trkpt><trkpt lat="45.864313" lon="9.201987"><ele>1423.4</ele><time>2016-02-20T10:09:03Z</time></trkpt><trkpt lat="45.864272" lon="9.201986"><ele>1423.4</ele><time>2016-02-20T10:09:07Z</time></trkpt><trkpt lat="45.864219" lon="9.201987"><ele>1421.9</ele><time>2016-02-20T10:09:11Z</time></trkpt><trkpt lat="45.864008" lon="9.202001"><ele>1421.9</ele><time>2016-02-20T10:09:27Z</time></trkpt><trkpt lat="45.863854" lon="9.201978"><ele>1421.9</ele><time>2016-02-20T10:09:39Z</time></trkpt><trkpt lat="45.863698" lon="9.201968"><ele>1421.9</ele><time>2016-02-20T10:09:51Z</time></trkpt><trkpt lat="45.863641" lon="9.201959"><ele>1421.9</ele><time>2016-02-20T10:10:04Z</time></trkpt><trkpt lat="45.863573" lon="9.201924"><ele>1419.5</ele><time>2016-02-20T10:10:16Z</time></trkpt><trkpt lat="45.863511" lon="9.201888"><ele>1416.6</ele><time>2016-02-20T10:10:27Z</time></trkpt><trkpt lat="45.863353" lon="9.201901"><ele>1414.7</ele><time>2016-02-20T10:10:41Z</time></trkpt><trkpt lat="45.863298" lon="9.201912"><ele>1414.2</ele><time>2016-02-20T10:10:45Z</time></trkpt><trkpt lat="45.863146" lon="9.201900"><ele>1412.8</ele><time>2016-02-20T10:11:00Z</time></trkpt><trkpt lat="45.863026" lon="9.201889"><ele>1413.3</ele><time>2016-02-20T10:11:12Z</time></trkpt><trkpt lat="45.862928" lon="9.201907"><ele>1414.7</ele><time>2016-02-20T10:11:24Z</time></trkpt><trkpt lat="45.862897" lon="9.201843"><ele>1416.6</ele><time>2016-02-20T10:11:33Z</time></trkpt><trkpt lat="45.862703" lon="9.201789"><ele>1415.2</ele><time>2016-02-20T10:11:49Z</time></trkpt><trkpt lat="45.862692" lon="9.201792"><ele>1415.2</ele><time>2016-02-20T10:11:50Z</time></trkpt><trkpt lat="45.862566" lon="9.201799"><ele>1415.2</ele><time>2016-02-20T10:12:01Z</time></trkpt><trkpt lat="45.862448" lon="9.201799"><ele>1418.6</ele><time>2016-02-20T10:12:14Z</time></trkpt><trkpt lat="45.862379" lon="9.201791"><ele>1421.0</ele><time>2016-02-20T10:12:26Z</time></trkpt><trkpt lat="45.862351" lon="9.201781"><ele>1421.9</ele><time>2016-02-20T10:12:43Z</time></trkpt><trkpt lat="45.862249" lon="9.201759"><ele>1423.4</ele><time>2016-02-20T10:12:55Z</time></trkpt><trkpt lat="45.862190" lon="9.201786"><ele>1421.9</ele><time>2016-02-20T10:13:03Z</time></trkpt><trkpt lat="45.862095" lon="9.201752"><ele>1421.0</ele><time>2016-02-20T10:13:14Z</time></trkpt><trkpt lat="45.862070" lon="9.201738"><ele>1421.0</ele><time>2016-02-20T10:13:17Z</time></trkpt><trkpt lat="45.862013" lon="9.201689"><ele>1421.0</ele><time>2016-02-20T10:13:30Z</time></trkpt><trkpt lat="45.861977" lon="9.201664"><ele>1421.0</ele><time>2016-02-20T10:13:41Z</time></trkpt><trkpt lat="45.861970" lon="9.201678"><ele>1421.9</ele><time>2016-02-20T10:13:55Z</time></trkpt><trkpt lat="45.861957" lon="9.201674"><ele>1421.9</ele><time>2016-02-20T10:14:12Z</time></trkpt><trkpt lat="45.861940" lon="9.201683"><ele>1421.0</ele><time>2016-02-20T10:14:24Z</time></trkpt><trkpt lat="45.861929" lon="9.201658"><ele>1421.0</ele><time>2016-02-20T10:14:42Z</time></trkpt><trkpt lat="45.861926" lon="9.201642"><ele>1421.0</ele><time>2016-02-20T10:15:01Z</time></trkpt><trkpt lat="45.861938" lon="9.201655"><ele>1422.4</ele><time>2016-02-20T10:15:24Z</time></trkpt><trkpt lat="45.861931" lon="9.201650"><ele>1422.4</ele><time>2016-02-20T10:15:47Z</time></trkpt><trkpt lat="45.861923" lon="9.201629"><ele>1422.4</ele><time>2016-02-20T10:16:05Z</time></trkpt><trkpt lat="45.861960" lon="9.201638"><ele>1422.4</ele><time>2016-02-20T10:16:22Z</time></trkpt><trkpt lat="45.861947" lon="9.201639"><ele>1422.4</ele><time>2016-02-20T10:16:31Z</time></trkpt><trkpt lat="45.861943" lon="9.201646"><ele>1422.4</ele><time>2016-02-20T10:16:42Z</time></trkpt><trkpt lat="45.861943" lon="9.201637"><ele>1422.4</ele><time>2016-02-20T10:16:55Z</time></trkpt><trkpt lat="45.861979" lon="9.201658"><ele>1422.4</ele><time>2016-02-20T10:17:02Z</time></trkpt><trkpt lat="45.862030" lon="9.201641"><ele>1422.4</ele><time>2016-02-20T10:17:13Z</time></trkpt><trkpt lat="45.862034" lon="9.201633"><ele>1422.9</ele><time>2016-02-20T10:17:27Z</time></trkpt><trkpt lat="45.862028" lon="9.201636"><ele>1422.9</ele><time>2016-02-20T10:17:45Z</time></trkpt><trkpt lat="45.862035" lon="9.201641"><ele>1422.9</ele><time>2016-02-20T10:18:02Z</time></trkpt><trkpt lat="45.862050" lon="9.201628"><ele>1422.9</ele><time>2016-02-20T10:18:24Z</time></trkpt><trkpt lat="45.862040" lon="9.201621"><ele>1422.9</ele><time>2016-02-20T10:18:41Z</time></trkpt><trkpt lat="45.862029" lon="9.201623"><ele>1421.9</ele><time>2016-02-20T10:18:58Z</time></trkpt><trkpt lat="45.862019" lon="9.201635"><ele>1421.9</ele><time>2016-02-20T10:19:15Z</time></trkpt><trkpt lat="45.862027" lon="9.201628"><ele>1421.9</ele><time>2016-02-20T10:19:44Z</time></trkpt><trkpt lat="45.862027" lon="9.201627"><ele>1421.9</ele><time>2016-02-20T10:20:02Z</time></trkpt><trkpt lat="45.862024" lon="9.201620"><ele>1421.9</ele><time>2016-02-20T10:20:23Z</time></trkpt><trkpt lat="45.862015" lon="9.201618"><ele>1421.9</ele><time>2016-02-20T10:20:47Z</time></trkpt><trkpt lat="45.862020" lon="9.201626"><ele>1421.9</ele><time>2016-02-20T10:21:19Z</time></trkpt><trkpt lat="45.862019" lon="9.201632"><ele>1422.4</ele><time>2016-02-20T10:21:44Z</time></trkpt><trkpt lat="45.862014" lon="9.201640"><ele>1421.9</ele><time>2016-02-20T10:22:11Z</time></trkpt><trkpt lat="45.861998" lon="9.201642"><ele>1421.9</ele><time>2016-02-20T10:22:43Z</time></trkpt><trkpt lat="45.862015" lon="9.201653"><ele>1421.9</ele><time>2016-02-20T10:23:09Z</time></trkpt><trkpt lat="45.862024" lon="9.201655"><ele>1422.4</ele><time>2016-02-20T10:23:36Z</time></trkpt><trkpt lat="45.862032" lon="9.201653"><ele>1422.4</ele><time>2016-02-20T10:24:02Z</time></trkpt><trkpt lat="45.862029" lon="9.201654"><ele>1422.4</ele><time>2016-02-20T10:24:25Z</time></trkpt><trkpt lat="45.862042" lon="9.201648"><ele>1422.4</ele><time>2016-02-20T10:24:54Z</time></trkpt><trkpt lat="45.862057" lon="9.201650"><ele>1422.4</ele><time>2016-02-20T10:25:22Z</time></trkpt><trkpt lat="45.862056" lon="9.201657"><ele>1422.4</ele><time>2016-02-20T10:25:55Z</time></trkpt><trkpt lat="45.862047" lon="9.201638"><ele>1422.9</ele><time>2016-02-20T10:26:08Z</time></trkpt><trkpt lat="45.862048" lon="9.201636"><ele>1422.4</ele><time>2016-02-20T10:26:34Z</time></trkpt><trkpt lat="45.862023" lon="9.201656"><ele>1422.4</ele><time>2016-02-20T10:27:03Z</time></trkpt><trkpt lat="45.862032" lon="9.201657"><ele>1422.4</ele><time>2016-02-20T10:27:29Z</time></trkpt><trkpt lat="45.862031" lon="9.201653"><ele>1422.9</ele><time>2016-02-20T10:27:59Z</time></trkpt><trkpt lat="45.862022" lon="9.201642"><ele>1422.9</ele><time>2016-02-20T10:28:24Z</time></trkpt><trkpt lat="45.862046" lon="9.201645"><ele>1422.9</ele><time>2016-02-20T10:28:43Z</time></trkpt><trkpt lat="45.862044" lon="9.201626"><ele>1422.9</ele><time>2016-02-20T10:28:56Z</time></trkpt><trkpt lat="45.862029" lon="9.201630"><ele>1422.9</ele><time>2016-02-20T10:29:08Z</time></trkpt><trkpt lat="45.862031" lon="9.201639"><ele>1421.9</ele><time>2016-02-20T10:29:22Z</time></trkpt><trkpt lat="45.862048" lon="9.201673"><ele>1422.4</ele><time>2016-02-20T10:29:50Z</time></trkpt><trkpt lat="45.862047" lon="9.201664"><ele>1422.4</ele><time>2016-02-20T10:30:16Z</time></trkpt><trkpt lat="45.862042" lon="9.201659"><ele>1422.4</ele><time>2016-02-20T10:30:39Z</time></trkpt><trkpt lat="45.862032" lon="9.201650"><ele>1423.9</ele><time>2016-02-20T10:31:05Z</time></trkpt><trkpt lat="45.862042" lon="9.201661"><ele>1423.9</ele><time>2016-02-20T10:31:29Z</time></trkpt><trkpt lat="45.862039" lon="9.201665"><ele>1423.9</ele><time>2016-02-20T10:32:03Z</time></trkpt><trkpt lat="45.862036" lon="9.201658"><ele>1423.9</ele><time>2016-02-20T10:32:28Z</time></trkpt><trkpt lat="45.862033" lon="9.201650"><ele>1424.3</ele><time>2016-02-20T10:32:56Z</time></trkpt><trkpt lat="45.862027" lon="9.201664"><ele>1424.8</ele><time>2016-02-20T10:33:25Z</time></trkpt><trkpt lat="45.862019" lon="9.201665"><ele>1424.8</ele><time>2016-02-20T10:33:53Z</time></trkpt><trkpt lat="45.862020" lon="9.201681"><ele>1423.4</ele><time>2016-02-20T10:34:09Z</time></trkpt><trkpt lat="45.862021" lon="9.201667"><ele>1423.9</ele><time>2016-02-20T10:34:40Z</time></trkpt><trkpt lat="45.862032" lon="9.201664"><ele>1424.3</ele><time>2016-02-20T10:35:00Z</time></trkpt><trkpt lat="45.862023" lon="9.201650"><ele>1423.9</ele><time>2016-02-20T10:35:24Z</time></trkpt><trkpt lat="45.862025" lon="9.201618"><ele>1423.9</ele><time>2016-02-20T10:35:45Z</time></trkpt><trkpt lat="45.862033" lon="9.201642"><ele>1424.8</ele><time>2016-02-20T10:36:02Z</time></trkpt><trkpt lat="45.862036" lon="9.201642"><ele>1419.5</ele><time>2016-02-20T10:36:24Z</time></trkpt><trkpt lat="45.862036" lon="9.201641"><ele>1428.7</ele><time>2016-02-20T10:36:25Z</time></trkpt><trkpt lat="45.862034" lon="9.201640"><ele>1424.3</ele><time>2016-02-20T10:36:26Z</time></trkpt><trkpt lat="45.861982" lon="9.201675"><ele>1424.3</ele><time>2016-02-20T10:36:40Z</time></trkpt><trkpt lat="45.861969" lon="9.201668"><ele>1424.3</ele><time>2016-02-20T10:36:42Z</time></trkpt><trkpt lat="45.861910" lon="9.201651"><ele>1423.4</ele><time>2016-02-20T10:36:53Z</time></trkpt><trkpt lat="45.861832" lon="9.201607"><ele>1421.9</ele><time>2016-02-20T10:37:07Z</time></trkpt><trkpt lat="45.861780" lon="9.201617"><ele>1420.0</ele><time>2016-02-20T10:37:12Z</time></trkpt><trkpt lat="45.861658" lon="9.201696"><ele>1416.6</ele><time>2016-02-20T10:37:25Z</time></trkpt><trkpt lat="45.861669" lon="9.201706"><ele>1416.2</ele><time>2016-02-20T10:37:38Z</time></trkpt><trkpt lat="45.861674" lon="9.201699"><ele>1416.2</ele><time>2016-02-20T10:37:56Z</time></trkpt><trkpt lat="45.861675" lon="9.201685"><ele>1415.7</ele><time>2016-02-20T10:38:12Z</time></trkpt><trkpt lat="45.861673" lon="9.201648"><ele>1415.7</ele><time>2016-02-20T10:38:32Z</time></trkpt><trkpt lat="45.861653" lon="9.201674"><ele>1416.2</ele><time>2016-02-20T10:38:51Z</time></trkpt><trkpt lat="45.861651" lon="9.201678"><ele>1417.1</ele><time>2016-02-20T10:38:54Z</time></trkpt><trkpt lat="45.861642" lon="9.201703"><ele>1416.2</ele><time>2016-02-20T10:39:05Z</time></trkpt><trkpt lat="45.861625" lon="9.201670"><ele>1416.2</ele><time>2016-02-20T10:39:16Z</time></trkpt><trkpt lat="45.861614" lon="9.201673"><ele>1416.2</ele><time>2016-02-20T10:39:30Z</time></trkpt><trkpt lat="45.861552" lon="9.201731"><ele>1413.3</ele><time>2016-02-20T10:39:43Z</time></trkpt><trkpt lat="45.861531" lon="9.201748"><ele>1412.3</ele><time>2016-02-20T10:39:47Z</time></trkpt><trkpt lat="45.861495" lon="9.201816"><ele>1409.0</ele><time>2016-02-20T10:40:00Z</time></trkpt><trkpt lat="45.861451" lon="9.201881"><ele>1406.1</ele><time>2016-02-20T10:40:14Z</time></trkpt><trkpt lat="45.861425" lon="9.201947"><ele>1403.2</ele><time>2016-02-20T10:40:28Z</time></trkpt><trkpt lat="45.861398" lon="9.202003"><ele>1401.3</ele><time>2016-02-20T10:40:44Z</time></trkpt><trkpt lat="45.861376" lon="9.202048"><ele>1398.4</ele><time>2016-02-20T10:41:01Z</time></trkpt><trkpt lat="45.861352" lon="9.202111"><ele>1396.0</ele><time>2016-02-20T10:41:18Z</time></trkpt><trkpt lat="45.861331" lon="9.202159"><ele>1393.1</ele><time>2016-02-20T10:41:37Z</time></trkpt><trkpt lat="45.861309" lon="9.202193"><ele>1390.2</ele><time>2016-02-20T10:41:53Z</time></trkpt><trkpt lat="45.861292" lon="9.202245"><ele>1388.8</ele><time>2016-02-20T10:42:09Z</time></trkpt><trkpt lat="45.861287" lon="9.202262"><ele>1387.8</ele><time>2016-02-20T10:42:25Z</time></trkpt><trkpt lat="45.861278" lon="9.202323"><ele>1385.9</ele><time>2016-02-20T10:42:43Z</time></trkpt><trkpt lat="45.861248" lon="9.202378"><ele>1383.0</ele><time>2016-02-20T10:43:01Z</time></trkpt><trkpt lat="45.861225" lon="9.202423"><ele>1380.6</ele><time>2016-02-20T10:43:17Z</time></trkpt><trkpt lat="45.861229" lon="9.202470"><ele>1378.7</ele><time>2016-02-20T10:43:34Z</time></trkpt><trkpt lat="45.861207" lon="9.202513"><ele>1376.8</ele><time>2016-02-20T10:43:49Z</time></trkpt><trkpt lat="45.861176" lon="9.202550"><ele>1373.9</ele><time>2016-02-20T10:44:06Z</time></trkpt><trkpt lat="45.861161" lon="9.202584"><ele>1371.5</ele><time>2016-02-20T10:44:24Z</time></trkpt><trkpt lat="45.861143" lon="9.202674"><ele>1368.1</ele><time>2016-02-20T10:44:39Z</time></trkpt><trkpt lat="45.861118" lon="9.202735"><ele>1366.2</ele><time>2016-02-20T10:44:52Z</time></trkpt><trkpt lat="45.861088" lon="9.202793"><ele>1362.8</ele><time>2016-02-20T10:45:05Z</time></trkpt><trkpt lat="45.861067" lon="9.202861"><ele>1359.9</ele><time>2016-02-20T10:45:21Z</time></trkpt><trkpt lat="45.861061" lon="9.202951"><ele>1357.0</ele><time>2016-02-20T10:45:36Z</time></trkpt><trkpt lat="45.861052" lon="9.202976"><ele>1355.6</ele><time>2016-02-20T10:45:53Z</time></trkpt><trkpt lat="45.861038" lon="9.203020"><ele>1353.2</ele><time>2016-02-20T10:46:06Z</time></trkpt><trkpt lat="45.860997" lon="9.203132"><ele>1349.4</ele><time>2016-02-20T10:46:25Z</time></trkpt><trkpt lat="45.860952" lon="9.203194"><ele>1346.9</ele><time>2016-02-20T10:46:41Z</time></trkpt><trkpt lat="45.860934" lon="9.203187"><ele>1346.9</ele><time>2016-02-20T10:47:03Z</time></trkpt><trkpt lat="45.860921" lon="9.203269"><ele>1344.5</ele><time>2016-02-20T10:47:18Z</time></trkpt><trkpt lat="45.860917" lon="9.203333"><ele>1341.7</ele><time>2016-02-20T10:47:31Z</time></trkpt><trkpt lat="45.860876" lon="9.203428"><ele>1337.8</ele><time>2016-02-20T10:47:49Z</time></trkpt><trkpt lat="45.860832" lon="9.203491"><ele>1335.9</ele><time>2016-02-20T10:48:04Z</time></trkpt><trkpt lat="45.860809" lon="9.203507"><ele>1334.9</ele><time>2016-02-20T10:48:22Z</time></trkpt><trkpt lat="45.860807" lon="9.203559"><ele>1332.0</ele><time>2016-02-20T10:48:37Z</time></trkpt><trkpt lat="45.860814" lon="9.203637"><ele>1329.6</ele><time>2016-02-20T10:48:53Z</time></trkpt><trkpt lat="45.860794" lon="9.203716"><ele>1327.7</ele><time>2016-02-20T10:49:11Z</time></trkpt><trkpt lat="45.860799" lon="9.203754"><ele>1325.8</ele><time>2016-02-20T10:49:26Z</time></trkpt><trkpt lat="45.860799" lon="9.203844"><ele>1322.0</ele><time>2016-02-20T10:49:40Z</time></trkpt><trkpt lat="45.860769" lon="9.203842"><ele>1319.6</ele><time>2016-02-20T10:50:00Z</time></trkpt><trkpt lat="45.860754" lon="9.203881"><ele>1317.6</ele><time>2016-02-20T10:50:16Z</time></trkpt><trkpt lat="45.860702" lon="9.203933"><ele>1315.7</ele><time>2016-02-20T10:50:31Z</time></trkpt><trkpt lat="45.860640" lon="9.204072"><ele>1312.3</ele><time>2016-02-20T10:50:47Z</time></trkpt><trkpt lat="45.860615" lon="9.204206"><ele>1309.5</ele><time>2016-02-20T10:51:02Z</time></trkpt><trkpt lat="45.860546" lon="9.204368"><ele>1307.1</ele><time>2016-02-20T10:51:19Z</time></trkpt><trkpt lat="45.860490" lon="9.204472"><ele>1303.2</ele><time>2016-02-20T10:51:34Z</time></trkpt><trkpt lat="45.860474" lon="9.204568"><ele>1300.3</ele><time>2016-02-20T10:51:47Z</time></trkpt><trkpt lat="45.860460" lon="9.204672"><ele>1297.4</ele><time>2016-02-20T10:51:59Z</time></trkpt><trkpt lat="45.860457" lon="9.204705"><ele>1295.5</ele><time>2016-02-20T10:52:16Z</time></trkpt><trkpt lat="45.860452" lon="9.204722"><ele>1295.5</ele><time>2016-02-20T10:52:36Z</time></trkpt><trkpt lat="45.860451" lon="9.204759"><ele>1295.0</ele><time>2016-02-20T10:52:57Z</time></trkpt><trkpt lat="45.860451" lon="9.204823"><ele>1293.1</ele><time>2016-02-20T10:53:05Z</time></trkpt><trkpt lat="45.860442" lon="9.204956"><ele>1289.8</ele><time>2016-02-20T10:53:21Z</time></trkpt><trkpt lat="45.860425" lon="9.205070"><ele>1286.9</ele><time>2016-02-20T10:53:35Z</time></trkpt><trkpt lat="45.860421" lon="9.205204"><ele>1283.5</ele><time>2016-02-20T10:53:50Z</time></trkpt><trkpt lat="45.860396" lon="9.205300"><ele>1280.6</ele><time>2016-02-20T10:54:06Z</time></trkpt><trkpt lat="45.860391" lon="9.205319"><ele>1281.1</ele><time>2016-02-20T10:54:25Z</time></trkpt><trkpt lat="45.860394" lon="9.205467"><ele>1277.7</ele><time>2016-02-20T10:54:38Z</time></trkpt><trkpt lat="45.860367" lon="9.205568"><ele>1274.4</ele><time>2016-02-20T10:54:49Z</time></trkpt><trkpt lat="45.860341" lon="9.205665"><ele>1271.5</ele><time>2016-02-20T10:55:03Z</time></trkpt><trkpt lat="45.860332" lon="9.205716"><ele>1269.1</ele><time>2016-02-20T10:55:15Z</time></trkpt><trkpt lat="45.860316" lon="9.205775"><ele>1265.7</ele><time>2016-02-20T10:55:28Z</time></trkpt><trkpt lat="45.860301" lon="9.205851"><ele>1262.8</ele><time>2016-02-20T10:55:43Z</time></trkpt><trkpt lat="45.860305" lon="9.205917"><ele>1260.9</ele><time>2016-02-20T10:55:50Z</time></trkpt><trkpt lat="45.860268" lon="9.205971"><ele>1257.5</ele><time>2016-02-20T10:56:06Z</time></trkpt><trkpt lat="45.860252" lon="9.206079"><ele>1255.1</ele><time>2016-02-20T10:56:19Z</time></trkpt><trkpt lat="45.860250" lon="9.206136"><ele>1251.8</ele><time>2016-02-20T10:56:31Z</time></trkpt><trkpt lat="45.860199" lon="9.206200"><ele>1248.9</ele><time>2016-02-20T10:56:45Z</time></trkpt><trkpt lat="45.860196" lon="9.206277"><ele>1246.0</ele><time>2016-02-20T10:56:59Z</time></trkpt><trkpt lat="45.860185" lon="9.206362"><ele>1243.6</ele><time>2016-02-20T10:57:12Z</time></trkpt><trkpt lat="45.860169" lon="9.206448"><ele>1240.7</ele><time>2016-02-20T10:57:26Z</time></trkpt><trkpt lat="45.860149" lon="9.206541"><ele>1237.4</ele><time>2016-02-20T10:57:41Z</time></trkpt><trkpt lat="45.860119" lon="9.206610"><ele>1235.0</ele><time>2016-02-20T10:57:56Z</time></trkpt><trkpt lat="45.860133" lon="9.206768"><ele>1231.6</ele><time>2016-02-20T10:58:09Z</time></trkpt><trkpt lat="45.860162" lon="9.206876"><ele>1228.2</ele><time>2016-02-20T10:58:23Z</time></trkpt><trkpt lat="45.860178" lon="9.206903"><ele>1226.8</ele><time>2016-02-20T10:58:29Z</time></trkpt><trkpt lat="45.860186" lon="9.206994"><ele>1223.9</ele><time>2016-02-20T10:58:45Z</time></trkpt><trkpt lat="45.860180" lon="9.207159"><ele>1222.0</ele><time>2016-02-20T10:59:01Z</time></trkpt><trkpt lat="45.860156" lon="9.207339"><ele>1219.6</ele><time>2016-02-20T10:59:17Z</time></trkpt><trkpt lat="45.860126" lon="9.207496"><ele>1217.7</ele><time>2016-02-20T10:59:32Z</time></trkpt><trkpt lat="45.860118" lon="9.207654"><ele>1215.2</ele><time>2016-02-20T10:59:47Z</time></trkpt><trkpt lat="45.860077" lon="9.207909"><ele>1213.8</ele><time>2016-02-20T11:00:04Z</time></trkpt><trkpt lat="45.860072" lon="9.207976"><ele>1213.8</ele><time>2016-02-20T11:00:19Z</time></trkpt><trkpt lat="45.860056" lon="9.208199"><ele>1212.8</ele><time>2016-02-20T11:00:35Z</time></trkpt><trkpt lat="45.860009" lon="9.208476"><ele>1211.4</ele><time>2016-02-20T11:00:52Z</time></trkpt><trkpt lat="45.859993" lon="9.208668"><ele>1209.5</ele><time>2016-02-20T11:01:06Z</time></trkpt><trkpt lat="45.859955" lon="9.208776"><ele>1209.0</ele><time>2016-02-20T11:01:27Z</time></trkpt><trkpt lat="45.859931" lon="9.208994"><ele>1207.6</ele><time>2016-02-20T11:01:44Z</time></trkpt><trkpt lat="45.859917" lon="9.209105"><ele>1207.1</ele><time>2016-02-20T11:02:02Z</time></trkpt><trkpt lat="45.859922" lon="9.209184"><ele>1206.6</ele><time>2016-02-20T11:02:22Z</time></trkpt><trkpt lat="45.859911" lon="9.209192"><ele>1206.6</ele><time>2016-02-20T11:02:39Z</time></trkpt><trkpt lat="45.859914" lon="9.209237"><ele>1205.2</ele><time>2016-02-20T11:02:47Z</time></trkpt><trkpt lat="45.859939" lon="9.209230"><ele>1206.1</ele><time>2016-02-20T11:02:59Z</time></trkpt><trkpt lat="45.859942" lon="9.209197"><ele>1206.6</ele><time>2016-02-20T11:03:09Z</time></trkpt><trkpt lat="45.859941" lon="9.209238"><ele>1206.6</ele><time>2016-02-20T11:03:27Z</time></trkpt><trkpt lat="45.859940" lon="9.209250"><ele>1205.2</ele><time>2016-02-20T11:03:31Z</time></trkpt><trkpt lat="45.859911" lon="9.209508"><ele>1203.7</ele><time>2016-02-20T11:03:47Z</time></trkpt><trkpt lat="45.859888" lon="9.209713"><ele>1201.3</ele><time>2016-02-20T11:04:03Z</time></trkpt><trkpt lat="45.859838" lon="9.209913"><ele>1198.9</ele><time>2016-02-20T11:04:19Z</time></trkpt><trkpt lat="45.859807" lon="9.210071"><ele>1195.5</ele><time>2016-02-20T11:04:33Z</time></trkpt><trkpt lat="45.859792" lon="9.210166"><ele>1192.2</ele><time>2016-02-20T11:04:45Z</time></trkpt><trkpt lat="45.859731" lon="9.210360"><ele>1189.3</ele><time>2016-02-20T11:05:02Z</time></trkpt><trkpt lat="45.859606" lon="9.210584"><ele>1187.4</ele><time>2016-02-20T11:05:19Z</time></trkpt><trkpt lat="45.859506" lon="9.210733"><ele>1187.4</ele><time>2016-02-20T11:05:45Z</time></trkpt><trkpt lat="45.859493" lon="9.210892"><ele>1185.9</ele><time>2016-02-20T11:06:05Z</time></trkpt><trkpt lat="45.859461" lon="9.211002"><ele>1183.0</ele><time>2016-02-20T11:06:22Z</time></trkpt><trkpt lat="45.859408" lon="9.211201"><ele>1183.0</ele><time>2016-02-20T11:06:40Z</time></trkpt><trkpt lat="45.859327" lon="9.211416"><ele>1183.0</ele><time>2016-02-20T11:06:53Z</time></trkpt><trkpt lat="45.859270" lon="9.211661"><ele>1181.6</ele><time>2016-02-20T11:07:09Z</time></trkpt><trkpt lat="45.859214" lon="9.211911"><ele>1180.2</ele><time>2016-02-20T11:07:26Z</time></trkpt><trkpt lat="45.859137" lon="9.212327"><ele>1178.7</ele><time>2016-02-20T11:07:42Z</time></trkpt><trkpt lat="45.859102" lon="9.212534"><ele>1176.3</ele><time>2016-02-20T11:07:59Z</time></trkpt><trkpt lat="45.859098" lon="9.212804"><ele>1174.4</ele><time>2016-02-20T11:08:13Z</time></trkpt><trkpt lat="45.859106" lon="9.212914"><ele>1171.5</ele><time>2016-02-20T11:08:25Z</time></trkpt><trkpt lat="45.859104" lon="9.213059"><ele>1168.1</ele><time>2016-02-20T11:08:39Z</time></trkpt><trkpt lat="45.859111" lon="9.213239"><ele>1164.8</ele><time>2016-02-20T11:08:52Z</time></trkpt><trkpt lat="45.859078" lon="9.213504"><ele>1161.4</ele><time>2016-02-20T11:09:07Z</time></trkpt><trkpt lat="45.859028" lon="9.213714"><ele>1159.5</ele><time>2016-02-20T11:09:22Z</time></trkpt><trkpt lat="45.859027" lon="9.213978"><ele>1156.1</ele><time>2016-02-20T11:09:35Z</time></trkpt><trkpt lat="45.859004" lon="9.214128"><ele>1153.7</ele><time>2016-02-20T11:09:49Z</time></trkpt><trkpt lat="45.858996" lon="9.214255"><ele>1150.4</ele><time>2016-02-20T11:10:00Z</time></trkpt><trkpt lat="45.859036" lon="9.214513"><ele>1146.5</ele><time>2016-02-20T11:10:15Z</time></trkpt><trkpt lat="45.859033" lon="9.214689"><ele>1143.6</ele><time>2016-02-20T11:10:33Z</time></trkpt><trkpt lat="45.859029" lon="9.214863"><ele>1139.8</ele><time>2016-02-20T11:10:48Z</time></trkpt><trkpt lat="45.859037" lon="9.215124"><ele>1135.9</ele><time>2016-02-20T11:11:03Z</time></trkpt><trkpt lat="45.859037" lon="9.215281"><ele>1133.1</ele><time>2016-02-20T11:11:20Z</time></trkpt><trkpt lat="45.859047" lon="9.215407"><ele>1130.2</ele><time>2016-02-20T11:11:37Z</time></trkpt><trkpt lat="45.859060" lon="9.215490"><ele>1126.8</ele><time>2016-02-20T11:11:48Z</time></trkpt><trkpt lat="45.859050" lon="9.215650"><ele>1123.4</ele><time>2016-02-20T11:12:05Z</time></trkpt><trkpt lat="45.859051" lon="9.215891"><ele>1121.5</ele><time>2016-02-20T11:12:20Z</time></trkpt><trkpt lat="45.859083" lon="9.215918"><ele>1120.1</ele><time>2016-02-20T11:12:34Z</time></trkpt><trkpt lat="45.859080" lon="9.215979"><ele>1117.2</ele><time>2016-02-20T11:12:46Z</time></trkpt><trkpt lat="45.859072" lon="9.216251"><ele>1113.8</ele><time>2016-02-20T11:12:59Z</time></trkpt><trkpt lat="45.859079" lon="9.216413"><ele>1110.9</ele><time>2016-02-20T11:13:15Z</time></trkpt><trkpt lat="45.859111" lon="9.216591"><ele>1107.6</ele><time>2016-02-20T11:13:28Z</time></trkpt><trkpt lat="45.859133" lon="9.216777"><ele>1104.7</ele><time>2016-02-20T11:13:45Z</time></trkpt><trkpt lat="45.859109" lon="9.216994"><ele>1102.3</ele><time>2016-02-20T11:14:02Z</time></trkpt><trkpt lat="45.859089" lon="9.217227"><ele>1098.9</ele><time>2016-02-20T11:14:17Z</time></trkpt><trkpt lat="45.859064" lon="9.217338"><ele>1096.0</ele><time>2016-02-20T11:14:31Z</time></trkpt><trkpt lat="45.859084" lon="9.217493"><ele>1092.7</ele><time>2016-02-20T11:14:47Z</time></trkpt><trkpt lat="45.859134" lon="9.217618"><ele>1089.8</ele><time>2016-02-20T11:14:59Z</time></trkpt><trkpt lat="45.859150" lon="9.217637"><ele>1089.8</ele><time>2016-02-20T11:15:00Z</time></trkpt><trkpt lat="45.859229" lon="9.217836"><ele>1086.4</ele><time>2016-02-20T11:15:15Z</time></trkpt><trkpt lat="45.859296" lon="9.218059"><ele>1083.5</ele><time>2016-02-20T11:15:29Z</time></trkpt><trkpt lat="45.859329" lon="9.218212"><ele>1080.7</ele><time>2016-02-20T11:15:43Z</time></trkpt><trkpt lat="45.859352" lon="9.218383"><ele>1077.3</ele><time>2016-02-20T11:15:57Z</time></trkpt><trkpt lat="45.859351" lon="9.218474"><ele>1073.9</ele><time>2016-02-20T11:16:11Z</time></trkpt><trkpt lat="45.859372" lon="9.218559"><ele>1071.5</ele><time>2016-02-20T11:16:26Z</time></trkpt><trkpt lat="45.859392" lon="9.218633"><ele>1069.6</ele><time>2016-02-20T11:16:32Z</time></trkpt><trkpt lat="45.859398" lon="9.218770"><ele>1066.2</ele><time>2016-02-20T11:16:47Z</time></trkpt><trkpt lat="45.859414" lon="9.218976"><ele>1062.9</ele><time>2016-02-20T11:17:02Z</time></trkpt><trkpt lat="45.859407" lon="9.219114"><ele>1060.5</ele><time>2016-02-20T11:17:18Z</time></trkpt><trkpt lat="45.859394" lon="9.219214"><ele>1057.6</ele><time>2016-02-20T11:17:30Z</time></trkpt><trkpt lat="45.859501" lon="9.219474"><ele>1055.7</ele><time>2016-02-20T11:17:48Z</time></trkpt><trkpt lat="45.859536" lon="9.219533"><ele>1054.7</ele><time>2016-02-20T11:18:02Z</time></trkpt><trkpt lat="45.859503" lon="9.219631"><ele>1052.3</ele><time>2016-02-20T11:18:19Z</time></trkpt><trkpt lat="45.859467" lon="9.219819"><ele>1049.4</ele><time>2016-02-20T11:18:35Z</time></trkpt><trkpt lat="45.859421" lon="9.220036"><ele>1046.5</ele><time>2016-02-20T11:18:51Z</time></trkpt><trkpt lat="45.859394" lon="9.220186"><ele>1043.2</ele><time>2016-02-20T11:19:03Z</time></trkpt><trkpt lat="45.859361" lon="9.220343"><ele>1040.8</ele><time>2016-02-20T11:19:19Z</time></trkpt><trkpt lat="45.859363" lon="9.220357"><ele>1040.8</ele><time>2016-02-20T11:19:29Z</time></trkpt><trkpt lat="45.859344" lon="9.220388"><ele>1040.3</ele><time>2016-02-20T11:19:44Z</time></trkpt><trkpt lat="45.859276" lon="9.220484"><ele>1038.4</ele><time>2016-02-20T11:19:56Z</time></trkpt><trkpt lat="45.859202" lon="9.220513"><ele>1036.9</ele><time>2016-02-20T11:20:07Z</time></trkpt><trkpt lat="45.859154" lon="9.220657"><ele>1033.6</ele><time>2016-02-20T11:20:22Z</time></trkpt><trkpt lat="45.859317" lon="9.220674"><ele>1030.7</ele><time>2016-02-20T11:20:37Z</time></trkpt><trkpt lat="45.859315" lon="9.220657"><ele>1030.2</ele><time>2016-02-20T11:20:50Z</time></trkpt><trkpt lat="45.859393" lon="9.220657"><ele>1027.8</ele><time>2016-02-20T11:21:03Z</time></trkpt><trkpt lat="45.859562" lon="9.220551"><ele>1024.9</ele><time>2016-02-20T11:21:17Z</time></trkpt><trkpt lat="45.859560" lon="9.220758"><ele>1021.5</ele><time>2016-02-20T11:21:31Z</time></trkpt><trkpt lat="45.859564" lon="9.220796"><ele>1020.6</ele><time>2016-02-20T11:21:33Z</time></trkpt><trkpt lat="45.859629" lon="9.220765"><ele>1017.7</ele><time>2016-02-20T11:21:47Z</time></trkpt><trkpt lat="45.859641" lon="9.220864"><ele>1013.9</ele><time>2016-02-20T11:22:01Z</time></trkpt><trkpt lat="45.859569" lon="9.221006"><ele>1011.0</ele><time>2016-02-20T11:22:16Z</time></trkpt><trkpt lat="45.859536" lon="9.221135"><ele>1007.6</ele><time>2016-02-20T11:22:27Z</time></trkpt><trkpt lat="45.859529" lon="9.221231"><ele>1004.2</ele><time>2016-02-20T11:22:40Z</time></trkpt><trkpt lat="45.859605" lon="9.221304"><ele>1001.4</ele><time>2016-02-20T11:22:51Z</time></trkpt><trkpt lat="45.859715" lon="9.221445"><ele>998.0</ele><time>2016-02-20T11:23:04Z</time></trkpt><trkpt lat="45.859813" lon="9.221531"><ele>994.6</ele><time>2016-02-20T11:23:15Z</time></trkpt><trkpt lat="45.859883" lon="9.221609"><ele>991.3</ele><time>2016-02-20T11:23:27Z</time></trkpt><trkpt lat="45.859957" lon="9.221716"><ele>988.4</ele><time>2016-02-20T11:23:41Z</time></trkpt><trkpt lat="45.860057" lon="9.221814"><ele>987.9</ele><time>2016-02-20T11:24:02Z</time></trkpt><trkpt lat="45.860115" lon="9.221941"><ele>985.5</ele><time>2016-02-20T11:24:19Z</time></trkpt><trkpt lat="45.860130" lon="9.221985"><ele>984.1</ele><time>2016-02-20T11:24:22Z</time></trkpt><trkpt lat="45.860209" lon="9.222151"><ele>980.2</ele><time>2016-02-20T11:24:36Z</time></trkpt><trkpt lat="45.860296" lon="9.222260"><ele>976.8</ele><time>2016-02-20T11:24:50Z</time></trkpt><trkpt lat="45.860368" lon="9.222344"><ele>975.9</ele><time>2016-02-20T11:25:09Z</time></trkpt><trkpt lat="45.860414" lon="9.222427"><ele>973.0</ele><time>2016-02-20T11:25:27Z</time></trkpt><trkpt lat="45.860497" lon="9.222357"><ele>969.2</ele><time>2016-02-20T11:25:44Z</time></trkpt><trkpt lat="45.860501" lon="9.222356"><ele>969.2</ele><time>2016-02-20T11:25:45Z</time></trkpt><trkpt lat="45.860625" lon="9.222438"><ele>966.3</ele><time>2016-02-20T11:26:00Z</time></trkpt><trkpt lat="45.860787" lon="9.222519"><ele>962.4</ele><time>2016-02-20T11:26:15Z</time></trkpt><trkpt lat="45.860839" lon="9.222668"><ele>959.5</ele><time>2016-02-20T11:26:32Z</time></trkpt><trkpt lat="45.860888" lon="9.222822"><ele>956.7</ele><time>2016-02-20T11:26:47Z</time></trkpt><trkpt lat="45.861008" lon="9.223054"><ele>954.3</ele><time>2016-02-20T11:27:03Z</time></trkpt><trkpt lat="45.861042" lon="9.223159"><ele>953.8</ele><time>2016-02-20T11:27:15Z</time></trkpt><trkpt lat="45.861094" lon="9.223221"><ele>951.4</ele><time>2016-02-20T11:27:28Z</time></trkpt><trkpt lat="45.861208" lon="9.223448"><ele>948.0</ele><time>2016-02-20T11:27:43Z</time></trkpt><trkpt lat="45.861333" lon="9.223696"><ele>944.6</ele><time>2016-02-20T11:27:59Z</time></trkpt><trkpt lat="45.861367" lon="9.223926"><ele>941.8</ele><time>2016-02-20T11:28:15Z</time></trkpt><trkpt lat="45.861357" lon="9.224189"><ele>938.9</ele><time>2016-02-20T11:28:31Z</time></trkpt><trkpt lat="45.861359" lon="9.224424"><ele>936.0</ele><time>2016-02-20T11:28:46Z</time></trkpt><trkpt lat="45.861370" lon="9.224594"><ele>933.1</ele><time>2016-02-20T11:29:00Z</time></trkpt><trkpt lat="45.861394" lon="9.224824"><ele>929.7</ele><time>2016-02-20T11:29:13Z</time></trkpt><trkpt lat="45.861395" lon="9.225004"><ele>926.4</ele><time>2016-02-20T11:29:25Z</time></trkpt><trkpt lat="45.861429" lon="9.225184"><ele>923.0</ele><time>2016-02-20T11:29:37Z</time></trkpt><trkpt lat="45.861513" lon="9.225457"><ele>919.6</ele><time>2016-02-20T11:29:54Z</time></trkpt><trkpt lat="45.861639" lon="9.225559"><ele>917.2</ele><time>2016-02-20T11:30:09Z</time></trkpt><trkpt lat="45.861835" lon="9.225526"><ele>913.9</ele><time>2016-02-20T11:30:23Z</time></trkpt><trkpt lat="45.861982" lon="9.225497"><ele>910.5</ele><time>2016-02-20T11:30:39Z</time></trkpt><trkpt lat="45.862145" lon="9.225406"><ele>907.6</ele><time>2016-02-20T11:30:53Z</time></trkpt><trkpt lat="45.862288" lon="9.225407"><ele>905.7</ele><time>2016-02-20T11:31:05Z</time></trkpt><trkpt lat="45.862346" lon="9.225497"><ele>902.3</ele><time>2016-02-20T11:31:17Z</time></trkpt><trkpt lat="45.862351" lon="9.225664"><ele>899.0</ele><time>2016-02-20T11:31:31Z</time></trkpt><trkpt lat="45.862319" lon="9.225818"><ele>896.1</ele><time>2016-02-20T11:31:44Z</time></trkpt><trkpt lat="45.862289" lon="9.226031"><ele>892.7</ele><time>2016-02-20T11:31:58Z</time></trkpt><trkpt lat="45.862224" lon="9.226197"><ele>889.4</ele><time>2016-02-20T11:32:15Z</time></trkpt><trkpt lat="45.862423" lon="9.226238"><ele>887.0</ele><time>2016-02-20T11:32:30Z</time></trkpt><trkpt lat="45.862544" lon="9.226293"><ele>885.5</ele><time>2016-02-20T11:32:48Z</time></trkpt><trkpt lat="45.862619" lon="9.226269"><ele>885.5</ele><time>2016-02-20T11:33:09Z</time></trkpt><trkpt lat="45.862637" lon="9.226372"><ele>885.5</ele><time>2016-02-20T11:33:22Z</time></trkpt><trkpt lat="45.862673" lon="9.226385"><ele>885.5</ele><time>2016-02-20T11:33:29Z</time></trkpt><trkpt lat="45.862780" lon="9.226509"><ele>884.6</ele><time>2016-02-20T11:33:44Z</time></trkpt><trkpt lat="45.862827" lon="9.226574"><ele>883.6</ele><time>2016-02-20T11:33:56Z</time></trkpt><trkpt lat="45.862974" lon="9.226845"><ele>881.7</ele><time>2016-02-20T11:34:13Z</time></trkpt><trkpt lat="45.863168" lon="9.227068"><ele>879.3</ele><time>2016-02-20T11:34:31Z</time></trkpt><trkpt lat="45.863359" lon="9.227097"><ele>878.8</ele><time>2016-02-20T11:34:45Z</time></trkpt><trkpt lat="45.863557" lon="9.227170"><ele>878.3</ele><time>2016-02-20T11:35:01Z</time></trkpt><trkpt lat="45.863767" lon="9.227270"><ele>875.9</ele><time>2016-02-20T11:35:17Z</time></trkpt><trkpt lat="45.863849" lon="9.227342"><ele>873.0</ele><time>2016-02-20T11:35:31Z</time></trkpt><trkpt lat="45.864026" lon="9.227442"><ele>869.7</ele><time>2016-02-20T11:35:46Z</time></trkpt><trkpt lat="45.864219" lon="9.227627"><ele>868.2</ele><time>2016-02-20T11:35:59Z</time></trkpt><trkpt lat="45.864341" lon="9.227707"><ele>867.3</ele><time>2016-02-20T11:36:18Z</time></trkpt><trkpt lat="45.864447" lon="9.227900"><ele>865.3</ele><time>2016-02-20T11:36:37Z</time></trkpt><trkpt lat="45.864516" lon="9.228094"><ele>864.4</ele><time>2016-02-20T11:36:52Z</time></trkpt><trkpt lat="45.864701" lon="9.228358"><ele>862.0</ele><time>2016-02-20T11:37:08Z</time></trkpt><trkpt lat="45.864768" lon="9.228572"><ele>860.0</ele><time>2016-02-20T11:37:23Z</time></trkpt><trkpt lat="45.864844" lon="9.228800"><ele>857.2</ele><time>2016-02-20T11:37:38Z</time></trkpt><trkpt lat="45.864993" lon="9.229092"><ele>853.8</ele><time>2016-02-20T11:37:57Z</time></trkpt><trkpt lat="45.865150" lon="9.229396"><ele>851.4</ele><time>2016-02-20T11:38:15Z</time></trkpt><trkpt lat="45.865249" lon="9.229637"><ele>849.9</ele><time>2016-02-20T11:38:33Z</time></trkpt><trkpt lat="45.865247" lon="9.229650"><ele>849.9</ele><time>2016-02-20T11:38:36Z</time></trkpt><trkpt lat="45.865288" lon="9.229781"><ele>848.5</ele><time>2016-02-20T11:38:47Z</time></trkpt><trkpt lat="45.865343" lon="9.229950"><ele>847.1</ele><time>2016-02-20T11:38:58Z</time></trkpt><trkpt lat="45.865381" lon="9.230105"><ele>845.6</ele><time>2016-02-20T11:39:09Z</time></trkpt><trkpt lat="45.865492" lon="9.230468"><ele>844.2</ele><time>2016-02-20T11:39:26Z</time></trkpt><trkpt lat="45.865472" lon="9.230728"><ele>842.7</ele><time>2016-02-20T11:39:42Z</time></trkpt><trkpt lat="45.865504" lon="9.230981"><ele>841.8</ele><time>2016-02-20T11:39:53Z</time></trkpt><trkpt lat="45.865497" lon="9.231217"><ele>840.8</ele><time>2016-02-20T11:40:05Z</time></trkpt><trkpt lat="45.865495" lon="9.231275"><ele>840.8</ele><time>2016-02-20T11:40:09Z</time></trkpt><trkpt lat="45.865389" lon="9.231423"><ele>840.3</ele><time>2016-02-20T11:40:20Z</time></trkpt><trkpt lat="45.865332" lon="9.231539"><ele>839.9</ele><time>2016-02-20T11:40:31Z</time></trkpt><trkpt lat="45.865299" lon="9.231752"><ele>837.9</ele><time>2016-02-20T11:40:43Z</time></trkpt><trkpt lat="45.865247" lon="9.231917"><ele>836.5</ele><time>2016-02-20T11:40:53Z</time></trkpt><trkpt lat="45.865133" lon="9.232083"><ele>834.1</ele><time>2016-02-20T11:41:07Z</time></trkpt><trkpt lat="45.864926" lon="9.232255"><ele>831.7</ele><time>2016-02-20T11:41:25Z</time></trkpt><trkpt lat="45.864716" lon="9.232474"><ele>828.8</ele><time>2016-02-20T11:41:40Z</time></trkpt><trkpt lat="45.864612" lon="9.232673"><ele>825.4</ele><time>2016-02-20T11:41:55Z</time></trkpt><trkpt lat="45.864492" lon="9.232867"><ele>822.1</ele><time>2016-02-20T11:42:09Z</time></trkpt><trkpt lat="45.864371" lon="9.233001"><ele>819.2</ele><time>2016-02-20T11:42:22Z</time></trkpt><trkpt lat="45.864218" lon="9.233199"><ele>816.3</ele><time>2016-02-20T11:42:37Z</time></trkpt><trkpt lat="45.864152" lon="9.233418"><ele>812.9</ele><time>2016-02-20T11:42:50Z</time></trkpt><trkpt lat="45.864106" lon="9.233621"><ele>810.1</ele><time>2016-02-20T11:43:06Z</time></trkpt><trkpt lat="45.864064" lon="9.233945"><ele>806.2</ele><time>2016-02-20T11:43:22Z</time></trkpt><trkpt lat="45.864099" lon="9.233961"><ele>806.7</ele><time>2016-02-20T11:43:34Z</time></trkpt><trkpt lat="45.864111" lon="9.233941"><ele>806.2</ele><time>2016-02-20T11:43:49Z</time></trkpt><trkpt lat="45.864102" lon="9.233940"><ele>806.2</ele><time>2016-02-20T11:44:08Z</time></trkpt><trkpt lat="45.864011" lon="9.234114"><ele>803.3</ele><time>2016-02-20T11:44:21Z</time></trkpt><trkpt lat="45.863986" lon="9.234312"><ele>801.9</ele><time>2016-02-20T11:44:35Z</time></trkpt><trkpt lat="45.864027" lon="9.234392"><ele>801.9</ele><time>2016-02-20T11:44:56Z</time></trkpt><trkpt lat="45.863934" lon="9.234553"><ele>800.0</ele><time>2016-02-20T11:45:10Z</time></trkpt><trkpt lat="45.863879" lon="9.234731"><ele>797.1</ele><time>2016-02-20T11:45:23Z</time></trkpt><trkpt lat="45.863800" lon="9.234963"><ele>794.2</ele><time>2016-02-20T11:45:36Z</time></trkpt><trkpt lat="45.863732" lon="9.235146"><ele>790.8</ele><time>2016-02-20T11:45:48Z</time></trkpt><trkpt lat="45.863697" lon="9.235340"><ele>788.4</ele><time>2016-02-20T11:45:57Z</time></trkpt><trkpt lat="45.863635" lon="9.235620"><ele>785.5</ele><time>2016-02-20T11:46:12Z</time></trkpt><trkpt lat="45.863584" lon="9.235826"><ele>782.7</ele><time>2016-02-20T11:46:26Z</time></trkpt><trkpt lat="45.863543" lon="9.236052"><ele>779.8</ele><time>2016-02-20T11:46:39Z</time></trkpt><trkpt lat="45.863473" lon="9.236253"><ele>776.4</ele><time>2016-02-20T11:46:52Z</time></trkpt><trkpt lat="45.863560" lon="9.236480"><ele>774.5</ele><time>2016-02-20T11:47:06Z</time></trkpt><trkpt lat="45.863762" lon="9.236624"><ele>772.6</ele><time>2016-02-20T11:47:20Z</time></trkpt><trkpt lat="45.863932" lon="9.236790"><ele>769.7</ele><time>2016-02-20T11:47:36Z</time></trkpt><trkpt lat="45.864016" lon="9.236947"><ele>766.8</ele><time>2016-02-20T11:47:49Z</time></trkpt><trkpt lat="45.864028" lon="9.237070"><ele>765.4</ele><time>2016-02-20T11:47:57Z</time></trkpt><trkpt lat="45.864040" lon="9.237324"><ele>762.0</ele><time>2016-02-20T11:48:12Z</time></trkpt><trkpt lat="45.864051" lon="9.237585"><ele>760.1</ele><time>2016-02-20T11:48:27Z</time></trkpt><trkpt lat="45.864063" lon="9.237623"><ele>760.1</ele><time>2016-02-20T11:48:33Z</time></trkpt><trkpt lat="45.864081" lon="9.237713"><ele>758.6</ele><time>2016-02-20T11:48:39Z</time></trkpt><trkpt lat="45.864087" lon="9.237748"><ele>758.1</ele><time>2016-02-20T11:48:41Z</time></trkpt><trkpt lat="45.864046" lon="9.237936"><ele>754.8</ele><time>2016-02-20T11:48:53Z</time></trkpt><trkpt lat="45.864025" lon="9.238020"><ele>754.8</ele><time>2016-02-20T11:49:06Z</time></trkpt><trkpt lat="45.864070" lon="9.238030"><ele>754.3</ele><time>2016-02-20T11:49:18Z</time></trkpt><trkpt lat="45.864122" lon="9.238060"><ele>754.8</ele><time>2016-02-20T11:49:35Z</time></trkpt><trkpt lat="45.864093" lon="9.238083"><ele>754.8</ele><time>2016-02-20T11:49:40Z</time></trkpt><trkpt lat="45.864130" lon="9.238121"><ele>753.8</ele><time>2016-02-20T11:49:44Z</time></trkpt><trkpt lat="45.864241" lon="9.238258"><ele>750.5</ele><time>2016-02-20T11:49:57Z</time></trkpt><trkpt lat="45.864266" lon="9.238280"><ele>750.0</ele><time>2016-02-20T11:50:00Z</time></trkpt><trkpt lat="45.864339" lon="9.238245"><ele>746.1</ele><time>2016-02-20T11:50:12Z</time></trkpt><trkpt lat="45.864370" lon="9.238181"><ele>743.2</ele><time>2016-02-20T11:50:21Z</time></trkpt><trkpt lat="45.864486" lon="9.238008"><ele>739.4</ele><time>2016-02-20T11:50:33Z</time></trkpt><trkpt lat="45.864607" lon="9.237989"><ele>737.0</ele><time>2016-02-20T11:50:41Z</time></trkpt><trkpt lat="45.864710" lon="9.238010"><ele>735.6</ele><time>2016-02-20T11:50:45Z</time></trkpt><trkpt lat="45.864760" lon="9.238050"><ele>733.6</ele><time>2016-02-20T11:50:54Z</time></trkpt><trkpt lat="45.864840" lon="9.238032"><ele>730.3</ele><time>2016-02-20T11:51:04Z</time></trkpt><trkpt lat="45.864872" lon="9.237820"><ele>726.9</ele><time>2016-02-20T11:51:17Z</time></trkpt><trkpt lat="45.864925" lon="9.237599"><ele>723.5</ele><time>2016-02-20T11:51:29Z</time></trkpt><trkpt lat="45.864962" lon="9.237348"><ele>720.7</ele><time>2016-02-20T11:51:42Z</time></trkpt><trkpt lat="45.865063" lon="9.237335"><ele>717.3</ele><time>2016-02-20T11:51:52Z</time></trkpt><trkpt lat="45.865083" lon="9.237535"><ele>713.9</ele><time>2016-02-20T11:52:03Z</time></trkpt><trkpt lat="45.865194" lon="9.237725"><ele>710.6</ele><time>2016-02-20T11:52:16Z</time></trkpt><trkpt lat="45.865273" lon="9.237858"><ele>707.2</ele><time>2016-02-20T11:52:27Z</time></trkpt><trkpt lat="45.865395" lon="9.238010"><ele>704.3</ele><time>2016-02-20T11:52:39Z</time></trkpt><trkpt lat="45.865449" lon="9.238148"><ele>700.5</ele><time>2016-02-20T11:52:49Z</time></trkpt><trkpt lat="45.865424" lon="9.238330"><ele>697.6</ele><time>2016-02-20T11:53:01Z</time></trkpt><trkpt lat="45.865485" lon="9.238313"><ele>694.2</ele><time>2016-02-20T11:53:13Z</time></trkpt><trkpt lat="45.865573" lon="9.238163"><ele>690.8</ele><time>2016-02-20T11:53:23Z</time></trkpt><trkpt lat="45.865660" lon="9.238015"><ele>688.0</ele><time>2016-02-20T11:53:33Z</time></trkpt><trkpt lat="45.865736" lon="9.237918"><ele>687.0</ele><time>2016-02-20T11:53:50Z</time></trkpt><trkpt lat="45.865819" lon="9.238083"><ele>683.2</ele><time>2016-02-20T11:54:06Z</time></trkpt><trkpt lat="45.865893" lon="9.238323"><ele>681.2</ele><time>2016-02-20T11:54:23Z</time></trkpt><trkpt lat="45.866034" lon="9.238503"><ele>679.8</ele><time>2016-02-20T11:54:36Z</time></trkpt><trkpt lat="45.866135" lon="9.238651"><ele>678.8</ele><time>2016-02-20T11:54:53Z</time></trkpt><trkpt lat="45.866079" lon="9.238926"><ele>676.9</ele><time>2016-02-20T11:55:07Z</time></trkpt><trkpt lat="45.866010" lon="9.239073"><ele>676.9</ele><time>2016-02-20T11:55:13Z</time></trkpt><trkpt lat="45.865892" lon="9.239269"><ele>676.4</ele><time>2016-02-20T11:55:26Z</time></trkpt><trkpt lat="45.865825" lon="9.239514"><ele>676.4</ele><time>2016-02-20T11:55:40Z</time></trkpt><trkpt lat="45.865775" lon="9.239765"><ele>676.4</ele><time>2016-02-20T11:55:54Z</time></trkpt><trkpt lat="45.865744" lon="9.239930"><ele>677.9</ele><time>2016-02-20T11:56:03Z</time></trkpt><trkpt lat="45.865648" lon="9.240242"><ele>677.9</ele><time>2016-02-20T11:56:19Z</time></trkpt><trkpt lat="45.865625" lon="9.240492"><ele>679.3</ele><time>2016-02-20T11:56:34Z</time></trkpt><trkpt lat="45.865622" lon="9.240502"><ele>679.3</ele><time>2016-02-20T11:56:35Z</time></trkpt><trkpt lat="45.865553" lon="9.240797"><ele>678.8</ele><time>2016-02-20T11:56:50Z</time></trkpt><trkpt lat="45.865484" lon="9.241076"><ele>678.4</ele><time>2016-02-20T11:57:06Z</time></trkpt><trkpt lat="45.865407" lon="9.241299"><ele>677.9</ele><time>2016-02-20T11:57:19Z</time></trkpt><trkpt lat="45.865338" lon="9.241622"><ele>677.4</ele><time>2016-02-20T11:57:36Z</time></trkpt><trkpt lat="45.865265" lon="9.241872"><ele>676.9</ele><time>2016-02-20T11:57:49Z</time></trkpt><trkpt lat="45.865147" lon="9.242140"><ele>675.9</ele><time>2016-02-20T11:58:05Z</time></trkpt><trkpt lat="45.865061" lon="9.242317"><ele>675.9</ele><time>2016-02-20T11:58:17Z</time></trkpt><trkpt lat="45.865005" lon="9.242562"><ele>675.9</ele><time>2016-02-20T11:58:31Z</time></trkpt><trkpt lat="45.864956" lon="9.242857"><ele>675.5</ele><time>2016-02-20T11:58:47Z</time></trkpt><trkpt lat="45.864955" lon="9.243196"><ele>675.5</ele><time>2016-02-20T11:59:04Z</time></trkpt><trkpt lat="45.864921" lon="9.243517"><ele>676.4</ele><time>2016-02-20T11:59:18Z</time></trkpt><trkpt lat="45.864930" lon="9.243804"><ele>673.1</ele><time>2016-02-20T11:59:32Z</time></trkpt><trkpt lat="45.864851" lon="9.244145"><ele>669.7</ele><time>2016-02-20T11:59:48Z</time></trkpt><trkpt lat="45.864886" lon="9.244368"><ele>668.3</ele><time>2016-02-20T12:00:02Z</time></trkpt><trkpt lat="45.864955" lon="9.244645"><ele>665.9</ele><time>2016-02-20T12:00:20Z</time></trkpt><trkpt lat="45.864962" lon="9.244692"><ele>665.9</ele><time>2016-02-20T12:00:24Z</time></trkpt><trkpt lat="45.864972" lon="9.245058"><ele>663.5</ele><time>2016-02-20T12:00:39Z</time></trkpt><trkpt lat="45.865069" lon="9.245314"><ele>662.5</ele><time>2016-02-20T12:00:54Z</time></trkpt><trkpt lat="45.865148" lon="9.245516"><ele>661.0</ele><time>2016-02-20T12:01:07Z</time></trkpt><trkpt lat="45.865253" lon="9.245803"><ele>659.6</ele><time>2016-02-20T12:01:22Z</time></trkpt><trkpt lat="45.865278" lon="9.246144"><ele>658.6</ele><time>2016-02-20T12:01:39Z</time></trkpt><trkpt lat="45.865191" lon="9.246515"><ele>657.2</ele><time>2016-02-20T12:01:54Z</time></trkpt><trkpt lat="45.865183" lon="9.246657"><ele>655.3</ele><time>2016-02-20T12:02:03Z</time></trkpt><trkpt lat="45.865179" lon="9.246701"><ele>655.3</ele><time>2016-02-20T12:02:05Z</time></trkpt><trkpt lat="45.865121" lon="9.246783"><ele>653.8</ele><time>2016-02-20T12:02:16Z</time></trkpt><trkpt lat="45.865118" lon="9.246782"><ele>655.3</ele><time>2016-02-20T12:02:20Z</time></trkpt><trkpt lat="45.865113" lon="9.246795"><ele>655.3</ele><time>2016-02-20T12:02:37Z</time></trkpt><trkpt lat="45.865103" lon="9.246782"><ele>655.3</ele><time>2016-02-20T12:02:52Z</time></trkpt><trkpt lat="45.865134" lon="9.246731"><ele>655.3</ele><time>2016-02-20T12:03:10Z</time></trkpt><trkpt lat="45.865163" lon="9.246631"><ele>655.8</ele><time>2016-02-20T12:03:16Z</time></trkpt><trkpt lat="45.865237" lon="9.246404"><ele>657.7</ele><time>2016-02-20T12:03:31Z</time></trkpt><trkpt lat="45.865327" lon="9.246141"><ele>659.1</ele><time>2016-02-20T12:03:47Z</time></trkpt><trkpt lat="45.865331" lon="9.246058"><ele>659.6</ele><time>2016-02-20T12:03:51Z</time></trkpt><trkpt lat="45.865313" lon="9.245976"><ele>659.6</ele><time>2016-02-20T12:03:53Z</time></trkpt><trkpt lat="45.865237" lon="9.245759"><ele>660.6</ele><time>2016-02-20T12:04:05Z</time></trkpt><trkpt lat="45.865155" lon="9.245573"><ele>661.0</ele><time>2016-02-20T12:04:17Z</time></trkpt><trkpt lat="45.865076" lon="9.245384"><ele>662.5</ele><time>2016-02-20T12:04:30Z</time></trkpt><trkpt lat="45.864964" lon="9.245070"><ele>664.4</ele><time>2016-02-20T12:04:46Z</time></trkpt><trkpt lat="45.864923" lon="9.244789"><ele>665.4</ele><time>2016-02-20T12:05:01Z</time></trkpt><trkpt lat="45.864907" lon="9.244529"><ele>666.8</ele><time>2016-02-20T12:05:17Z</time></trkpt><trkpt lat="45.864883" lon="9.244273"><ele>668.7</ele><time>2016-02-20T12:05:32Z</time></trkpt><trkpt lat="45.864898" lon="9.244007"><ele>671.6</ele><time>2016-02-20T12:05:47Z</time></trkpt><trkpt lat="45.865009" lon="9.243779"><ele>673.5</ele><time>2016-02-20T12:06:02Z</time></trkpt><trkpt lat="45.864994" lon="9.243568"><ele>675.9</ele><time>2016-02-20T12:06:16Z</time></trkpt><trkpt lat="45.864985" lon="9.243423"><ele>676.4</ele><time>2016-02-20T12:06:23Z</time></trkpt><trkpt lat="45.864974" lon="9.243193"><ele>675.0</ele><time>2016-02-20T12:06:36Z</time></trkpt><trkpt lat="45.864999" lon="9.242903"><ele>675.0</ele><time>2016-02-20T12:06:50Z</time></trkpt><trkpt lat="45.865039" lon="9.242581"><ele>675.0</ele><time>2016-02-20T12:07:06Z</time></trkpt><trkpt lat="45.865075" lon="9.242311"><ele>675.0</ele><time>2016-02-20T12:07:20Z</time></trkpt><trkpt lat="45.865091" lon="9.242284"><ele>675.0</ele><time>2016-02-20T12:07:22Z</time></trkpt><trkpt lat="45.865156" lon="9.242089"><ele>675.0</ele><time>2016-02-20T12:07:33Z</time></trkpt><trkpt lat="45.865232" lon="9.241952"><ele>676.4</ele><time>2016-02-20T12:07:44Z</time></trkpt><trkpt lat="45.865356" lon="9.241822"><ele>679.8</ele><time>2016-02-20T12:07:59Z</time></trkpt><trkpt lat="45.865476" lon="9.241823"><ele>683.2</ele><time>2016-02-20T12:08:12Z</time></trkpt><trkpt lat="45.865489" lon="9.241820"><ele>684.1</ele><time>2016-02-20T12:08:14Z</time></trkpt><trkpt lat="45.865550" lon="9.241717"><ele>687.5</ele><time>2016-02-20T12:08:28Z</time></trkpt><trkpt lat="45.865610" lon="9.241688"><ele>689.4</ele><time>2016-02-20T12:08:38Z</time></trkpt><trkpt lat="45.865667" lon="9.241625"><ele>692.8</ele><time>2016-02-20T12:08:49Z</time></trkpt><trkpt lat="45.865722" lon="9.241488"><ele>695.7</ele><time>2016-02-20T12:09:01Z</time></trkpt><trkpt lat="45.865776" lon="9.241372"><ele>696.6</ele><time>2016-02-20T12:09:12Z</time></trkpt><trkpt lat="45.865834" lon="9.241273"><ele>698.5</ele><time>2016-02-20T12:09:23Z</time></trkpt><trkpt lat="45.865907" lon="9.241136"><ele>701.4</ele><time>2016-02-20T12:09:37Z</time></trkpt><trkpt lat="45.865983" lon="9.241005"><ele>704.3</ele><time>2016-02-20T12:09:50Z</time></trkpt><trkpt lat="45.866045" lon="9.240895"><ele>706.2</ele><time>2016-02-20T12:10:02Z</time></trkpt><trkpt lat="45.866106" lon="9.240802"><ele>709.1</ele><time>2016-02-20T12:10:15Z</time></trkpt><trkpt lat="45.866153" lon="9.240723"><ele>711.0</ele><time>2016-02-20T12:10:27Z</time></trkpt><trkpt lat="45.866198" lon="9.240660"><ele>713.9</ele><time>2016-02-20T12:10:39Z</time></trkpt><trkpt lat="45.866247" lon="9.240558"><ele>715.8</ele><time>2016-02-20T12:10:50Z</time></trkpt><trkpt lat="45.866330" lon="9.240454"><ele>717.8</ele><time>2016-02-20T12:11:05Z</time></trkpt><trkpt lat="45.866422" lon="9.240349"><ele>720.2</ele><time>2016-02-20T12:11:20Z</time></trkpt><trkpt lat="45.866490" lon="9.240117"><ele>721.1</ele><time>2016-02-20T12:11:34Z</time></trkpt><trkpt lat="45.866539" lon="9.239941"><ele>722.6</ele><time>2016-02-20T12:11:47Z</time></trkpt><trkpt lat="45.866552" lon="9.239800"><ele>724.0</ele><time>2016-02-20T12:12:01Z</time></trkpt><trkpt lat="45.866550" lon="9.239694"><ele>726.4</ele><time>2016-02-20T12:12:19Z</time></trkpt><trkpt lat="45.866603" lon="9.239562"><ele>727.4</ele><time>2016-02-20T12:12:32Z</time></trkpt><trkpt lat="45.866600" lon="9.239529"><ele>727.9</ele><time>2016-02-20T12:12:35Z</time></trkpt><trkpt lat="45.866632" lon="9.239407"><ele>730.7</ele><time>2016-02-20T12:12:47Z</time></trkpt><trkpt lat="45.866648" lon="9.239409"><ele>731.7</ele><time>2016-02-20T12:12:52Z</time></trkpt><trkpt lat="45.866652" lon="9.239467"><ele>733.1</ele><time>2016-02-20T12:13:00Z</time></trkpt><trkpt lat="45.866682" lon="9.239583"><ele>734.6</ele><time>2016-02-20T12:13:09Z</time></trkpt><trkpt lat="45.866656" lon="9.239629"><ele>735.1</ele><time>2016-02-20T12:13:14Z</time></trkpt><trkpt lat="45.866647" lon="9.239687"><ele>735.1</ele><time>2016-02-20T12:13:20Z</time></trkpt><trkpt lat="45.866651" lon="9.239739"><ele>735.1</ele><time>2016-02-20T12:13:25Z</time></trkpt><trkpt lat="45.866706" lon="9.239928"><ele>737.0</ele><time>2016-02-20T12:13:37Z</time></trkpt><trkpt lat="45.866713" lon="9.240053"><ele>738.4</ele><time>2016-02-20T12:13:47Z</time></trkpt><trkpt lat="45.866717" lon="9.240064"><ele>738.9</ele><time>2016-02-20T12:13:48Z</time></trkpt><trkpt lat="45.866753" lon="9.240191"><ele>739.9</ele><time>2016-02-20T12:13:58Z</time></trkpt><trkpt lat="45.866765" lon="9.240293"><ele>742.3</ele><time>2016-02-20T12:14:09Z</time></trkpt><trkpt lat="45.866776" lon="9.240332"><ele>743.2</ele><time>2016-02-20T12:14:13Z</time></trkpt><trkpt lat="45.866743" lon="9.240452"><ele>744.7</ele><time>2016-02-20T12:14:22Z</time></trkpt><trkpt lat="45.866735" lon="9.240469"><ele>745.2</ele><time>2016-02-20T12:14:24Z</time></trkpt><trkpt lat="45.866715" lon="9.240586"><ele>746.6</ele><time>2016-02-20T12:14:34Z</time></trkpt><trkpt lat="45.866748" lon="9.240741"><ele>748.5</ele><time>2016-02-20T12:14:44Z</time></trkpt><trkpt lat="45.866814" lon="9.240861"><ele>750.9</ele><time>2016-02-20T12:14:55Z</time></trkpt><trkpt lat="45.866887" lon="9.240887"><ele>753.3</ele><time>2016-02-20T12:15:08Z</time></trkpt><trkpt lat="45.866932" lon="9.240668"><ele>755.3</ele><time>2016-02-20T12:15:22Z</time></trkpt><trkpt lat="45.866942" lon="9.240613"><ele>755.7</ele><time>2016-02-20T12:15:33Z</time></trkpt><trkpt lat="45.866948" lon="9.240578"><ele>755.7</ele><time>2016-02-20T12:15:37Z</time></trkpt><trkpt lat="45.866989" lon="9.240458"><ele>756.2</ele><time>2016-02-20T12:15:46Z</time></trkpt><trkpt lat="45.867057" lon="9.240410"><ele>757.7</ele><time>2016-02-20T12:15:58Z</time></trkpt><trkpt lat="45.867072" lon="9.240407"><ele>757.7</ele><time>2016-02-20T12:16:17Z</time></trkpt><trkpt lat="45.867040" lon="9.240404"><ele>757.7</ele><time>2016-02-20T12:16:31Z</time></trkpt><trkpt lat="45.867032" lon="9.240418"><ele>758.1</ele><time>2016-02-20T12:16:50Z</time></trkpt><trkpt lat="45.867050" lon="9.240407"><ele>756.7</ele><time>2016-02-20T12:17:14Z</time></trkpt><trkpt lat="45.867063" lon="9.240408"><ele>756.7</ele><time>2016-02-20T12:17:35Z</time></trkpt><trkpt lat="45.867058" lon="9.240441"><ele>756.7</ele><time>2016-02-20T12:18:00Z</time></trkpt><trkpt lat="45.867044" lon="9.240430"><ele>758.1</ele><time>2016-02-20T12:18:26Z</time></trkpt><trkpt lat="45.867023" lon="9.240428"><ele>758.1</ele><time>2016-02-20T12:18:50Z</time></trkpt><trkpt lat="45.867034" lon="9.240466"><ele>758.1</ele><time>2016-02-20T12:19:15Z</time></trkpt><trkpt lat="45.867107" lon="9.240492"><ele>758.1</ele><time>2016-02-20T12:19:43Z</time></trkpt><trkpt lat="45.867083" lon="9.240464"><ele>758.1</ele><time>2016-02-20T12:20:05Z</time></trkpt><trkpt lat="45.867029" lon="9.240381"><ele>758.6</ele><time>2016-02-20T12:20:25Z</time></trkpt><trkpt lat="45.867048" lon="9.240338"><ele>758.6</ele><time>2016-02-20T12:20:44Z</time></trkpt><trkpt lat="45.867103" lon="9.240452"><ele>758.6</ele><time>2016-02-20T12:21:05Z</time></trkpt><trkpt lat="45.867060" lon="9.240415"><ele>758.6</ele><time>2016-02-20T12:21:27Z</time></trkpt><trkpt lat="45.867002" lon="9.240402"><ele>758.6</ele><time>2016-02-20T12:21:50Z</time></trkpt><trkpt lat="45.867045" lon="9.240440"><ele>758.6</ele><time>2016-02-20T12:22:08Z</time></trkpt><trkpt lat="45.867044" lon="9.240453"><ele>758.6</ele><time>2016-02-20T12:22:31Z</time></trkpt><trkpt lat="45.867051" lon="9.240432"><ele>758.6</ele><time>2016-02-20T12:23:04Z</time></trkpt><trkpt lat="45.867056" lon="9.240463"><ele>758.6</ele><time>2016-02-20T12:23:34Z</time></trkpt><trkpt lat="45.867056" lon="9.240430"><ele>758.6</ele><time>2016-02-20T12:24:02Z</time></trkpt><trkpt lat="45.867051" lon="9.240413"><ele>759.1</ele><time>2016-02-20T12:24:11Z</time></trkpt><trkpt lat="45.867054" lon="9.240424"><ele>759.1</ele><time>2016-02-20T12:24:23Z</time></trkpt><trkpt lat="45.867054" lon="9.240393"><ele>759.1</ele><time>2016-02-20T12:24:29Z</time></trkpt><trkpt lat="45.867036" lon="9.240241"><ele>759.1</ele><time>2016-02-20T12:24:39Z</time></trkpt><trkpt lat="45.867063" lon="9.240039"><ele>761.0</ele><time>2016-02-20T12:24:52Z</time></trkpt><trkpt lat="45.867086" lon="9.239921"><ele>761.0</ele><time>2016-02-20T12:25:00Z</time></trkpt><trkpt lat="45.867126" lon="9.239819"><ele>762.9</ele><time>2016-02-20T12:25:11Z</time></trkpt><trkpt lat="45.867127" lon="9.239745"><ele>763.4</ele><time>2016-02-20T12:25:17Z</time></trkpt><trkpt lat="45.867120" lon="9.239665"><ele>763.4</ele><time>2016-02-20T12:25:22Z</time></trkpt><trkpt lat="45.867139" lon="9.239464"><ele>763.4</ele><time>2016-02-20T12:25:35Z</time></trkpt><trkpt lat="45.867151" lon="9.239392"><ele>762.0</ele><time>2016-02-20T12:25:40Z</time></trkpt><trkpt lat="45.867176" lon="9.239321"><ele>762.0</ele><time>2016-02-20T12:25:51Z</time></trkpt><trkpt lat="45.867202" lon="9.239287"><ele>761.0</ele><time>2016-02-20T12:25:59Z</time></trkpt><trkpt lat="45.867235" lon="9.239179"><ele>761.0</ele><time>2016-02-20T12:26:06Z</time></trkpt><trkpt lat="45.867304" lon="9.239084"><ele>764.4</ele><time>2016-02-20T12:26:16Z</time></trkpt><trkpt lat="45.867361" lon="9.239015"><ele>766.8</ele><time>2016-02-20T12:26:26Z</time></trkpt><trkpt lat="45.867445" lon="9.238929"><ele>768.2</ele><time>2016-02-20T12:26:35Z</time></trkpt><trkpt lat="45.867585" lon="9.238767"><ele>770.2</ele><time>2016-02-20T12:26:50Z</time></trkpt><trkpt lat="45.867710" lon="9.238678"><ele>770.6</ele><time>2016-02-20T12:27:01Z</time></trkpt><trkpt lat="45.867793" lon="9.238646"><ele>771.6</ele><time>2016-02-20T12:27:08Z</time></trkpt><trkpt lat="45.867832" lon="9.238621"><ele>772.1</ele><time>2016-02-20T12:27:11Z</time></trkpt><trkpt lat="45.867849" lon="9.238606"><ele>772.1</ele><time>2016-02-20T12:27:12Z</time></trkpt><trkpt lat="45.867859" lon="9.238598"><ele>772.6</ele><time>2016-02-20T12:27:13Z</time></trkpt><trkpt lat="45.867871" lon="9.238594"><ele>772.6</ele><time>2016-02-20T12:27:14Z</time></trkpt><trkpt lat="45.867883" lon="9.238589"><ele>772.6</ele><time>2016-02-20T12:27:15Z</time></trkpt><trkpt lat="45.867964" lon="9.238591"><ele>773.0</ele><time>2016-02-20T12:27:22Z</time></trkpt><trkpt lat="45.868054" lon="9.238619"><ele>774.0</ele><time>2016-02-20T12:27:30Z</time></trkpt><trkpt lat="45.868158" lon="9.238651"><ele>774.5</ele><time>2016-02-20T12:27:38Z</time></trkpt><trkpt lat="45.868298" lon="9.238665"><ele>775.4</ele><time>2016-02-20T12:27:48Z</time></trkpt><trkpt lat="45.868406" lon="9.238696"><ele>775.9</ele><time>2016-02-20T12:27:57Z</time></trkpt><trkpt lat="45.868523" lon="9.238711"><ele>776.4</ele><time>2016-02-20T12:28:06Z</time></trkpt><trkpt lat="45.868573" lon="9.238717"><ele>776.9</ele><time>2016-02-20T12:28:11Z</time></trkpt><trkpt lat="45.868585" lon="9.238719"><ele>776.9</ele><time>2016-02-20T12:28:12Z</time></trkpt><trkpt lat="45.868599" lon="9.238721"><ele>776.9</ele><time>2016-02-20T12:28:13Z</time></trkpt><trkpt lat="45.868611" lon="9.238723"><ele>776.9</ele><time>2016-02-20T12:28:14Z</time></trkpt><trkpt lat="45.868624" lon="9.238726"><ele>776.9</ele><time>2016-02-20T12:28:15Z</time></trkpt><trkpt lat="45.868728" lon="9.238764"><ele>777.4</ele><time>2016-02-20T12:28:23Z</time></trkpt><trkpt lat="45.868842" lon="9.238788"><ele>777.4</ele><time>2016-02-20T12:28:32Z</time></trkpt><trkpt lat="45.868852" lon="9.238786"><ele>777.4</ele><time>2016-02-20T12:28:33Z</time></trkpt><trkpt lat="45.868952" lon="9.238794"><ele>778.3</ele><time>2016-02-20T12:28:41Z</time></trkpt><trkpt lat="45.868966" lon="9.238791"><ele>778.3</ele><time>2016-02-20T12:28:42Z</time></trkpt><trkpt lat="45.868986" lon="9.238790"><ele>778.3</ele><time>2016-02-20T12:28:43Z</time></trkpt><trkpt lat="45.869003" lon="9.238793"><ele>778.3</ele><time>2016-02-20T12:28:44Z</time></trkpt><trkpt lat="45.869024" lon="9.238795"><ele>778.3</ele><time>2016-02-20T12:28:45Z</time></trkpt><trkpt lat="45.869054" lon="9.238779"><ele>778.8</ele><time>2016-02-20T12:28:49Z</time></trkpt><trkpt lat="45.869072" lon="9.238776"><ele>778.8</ele><time>2016-02-20T12:28:50Z</time></trkpt><trkpt lat="45.869095" lon="9.238778"><ele>778.8</ele><time>2016-02-20T12:28:51Z</time></trkpt><trkpt lat="45.869223" lon="9.238787"><ele>778.8</ele><time>2016-02-20T12:28:59Z</time></trkpt><trkpt lat="45.869296" lon="9.238819"><ele>778.8</ele><time>2016-02-20T12:29:06Z</time></trkpt><trkpt lat="45.869309" lon="9.238820"><ele>778.8</ele><time>2016-02-20T12:29:07Z</time></trkpt><trkpt lat="45.869323" lon="9.238817"><ele>778.8</ele><time>2016-02-20T12:29:08Z</time></trkpt><trkpt lat="45.869340" lon="9.238823"><ele>778.8</ele><time>2016-02-20T12:29:09Z</time></trkpt><trkpt lat="45.869354" lon="9.238832"><ele>777.8</ele><time>2016-02-20T12:29:10Z</time></trkpt><trkpt lat="45.869389" lon="9.238832"><ele>777.8</ele><time>2016-02-20T12:29:15Z</time></trkpt><trkpt lat="45.869407" lon="9.238826"><ele>777.8</ele><time>2016-02-20T12:29:16Z</time></trkpt><trkpt lat="45.869424" lon="9.238820"><ele>777.8</ele><time>2016-02-20T12:29:17Z</time></trkpt><trkpt lat="45.869484" lon="9.238813"><ele>777.8</ele><time>2016-02-20T12:29:23Z</time></trkpt><trkpt lat="45.869503" lon="9.238825"><ele>777.8</ele><time>2016-02-20T12:29:24Z</time></trkpt><trkpt lat="45.869520" lon="9.238841"><ele>777.8</ele><time>2016-02-20T12:29:25Z</time></trkpt><trkpt lat="45.869533" lon="9.238853"><ele>777.8</ele><time>2016-02-20T12:29:26Z</time></trkpt><trkpt lat="45.869568" lon="9.238854"><ele>777.8</ele><time>2016-02-20T12:29:31Z</time></trkpt><trkpt lat="45.869588" lon="9.238859"><ele>777.8</ele><time>2016-02-20T12:29:32Z</time></trkpt><trkpt lat="45.869691" lon="9.238845"><ele>779.3</ele><time>2016-02-20T12:29:39Z</time></trkpt><trkpt lat="45.869728" lon="9.238853"><ele>779.3</ele><time>2016-02-20T12:29:41Z</time></trkpt><trkpt lat="45.869744" lon="9.238862"><ele>779.3</ele><time>2016-02-20T12:29:42Z</time></trkpt><trkpt lat="45.869775" lon="9.238855"><ele>779.3</ele><time>2016-02-20T12:29:45Z</time></trkpt><trkpt lat="45.869792" lon="9.238858"><ele>779.3</ele><time>2016-02-20T12:29:46Z</time></trkpt><trkpt lat="45.869811" lon="9.238868"><ele>779.3</ele><time>2016-02-20T12:29:47Z</time></trkpt><trkpt lat="45.869827" lon="9.238884"><ele>779.3</ele><time>2016-02-20T12:29:48Z</time></trkpt><trkpt lat="45.869839" lon="9.238895"><ele>779.3</ele><time>2016-02-20T12:29:49Z</time></trkpt><trkpt lat="45.869888" lon="9.238901"><ele>779.8</ele><time>2016-02-20T12:29:54Z</time></trkpt><trkpt lat="45.869906" lon="9.238905"><ele>779.8</ele><time>2016-02-20T12:29:55Z</time></trkpt><trkpt lat="45.869925" lon="9.238911"><ele>779.8</ele><time>2016-02-20T12:29:56Z</time></trkpt><trkpt lat="45.869939" lon="9.238915"><ele>779.8</ele><time>2016-02-20T12:29:57Z</time></trkpt><trkpt lat="45.869972" lon="9.238895"><ele>780.3</ele><time>2016-02-20T12:30:01Z</time></trkpt><trkpt lat="45.869987" lon="9.238892"><ele>780.3</ele><time>2016-02-20T12:30:02Z</time></trkpt><trkpt lat="45.870008" lon="9.238896"><ele>780.3</ele><time>2016-02-20T12:30:03Z</time></trkpt><trkpt lat="45.870028" lon="9.238903"><ele>780.3</ele><time>2016-02-20T12:30:04Z</time></trkpt><trkpt lat="45.870046" lon="9.238903"><ele>780.3</ele><time>2016-02-20T12:30:05Z</time></trkpt><trkpt lat="45.870058" lon="9.238901"><ele>780.3</ele><time>2016-02-20T12:30:06Z</time></trkpt><trkpt lat="45.870146" lon="9.238920"><ele>781.2</ele><time>2016-02-20T12:30:13Z</time></trkpt><trkpt lat="45.870284" lon="9.238927"><ele>781.7</ele><time>2016-02-20T12:30:22Z</time></trkpt><trkpt lat="45.870311" lon="9.238912"><ele>781.7</ele><time>2016-02-20T12:30:25Z</time></trkpt><trkpt lat="45.870328" lon="9.238904"><ele>781.7</ele><time>2016-02-20T12:30:26Z</time></trkpt><trkpt lat="45.870349" lon="9.238902"><ele>781.7</ele><time>2016-02-20T12:30:27Z</time></trkpt><trkpt lat="45.870373" lon="9.238904"><ele>781.7</ele><time>2016-02-20T12:30:28Z</time></trkpt><trkpt lat="45.870396" lon="9.238908"><ele>781.7</ele><time>2016-02-20T12:30:29Z</time></trkpt><trkpt lat="45.870442" lon="9.238876"><ele>781.7</ele><time>2016-02-20T12:30:34Z</time></trkpt><trkpt lat="45.870462" lon="9.238876"><ele>781.7</ele><time>2016-02-20T12:30:35Z</time></trkpt><trkpt lat="45.870486" lon="9.238879"><ele>781.7</ele><time>2016-02-20T12:30:36Z</time></trkpt><trkpt lat="45.870509" lon="9.238892"><ele>780.3</ele><time>2016-02-20T12:30:37Z</time></trkpt><trkpt lat="45.870524" lon="9.238900"><ele>780.3</ele><time>2016-02-20T12:30:38Z</time></trkpt><trkpt lat="45.870544" lon="9.238906"><ele>780.7</ele><time>2016-02-20T12:30:42Z</time></trkpt><trkpt lat="45.870564" lon="9.238910"><ele>780.7</ele><time>2016-02-20T12:30:43Z</time></trkpt><trkpt lat="45.870588" lon="9.238914"><ele>780.7</ele><time>2016-02-20T12:30:44Z</time></trkpt><trkpt lat="45.870611" lon="9.238920"><ele>780.3</ele><time>2016-02-20T12:30:45Z</time></trkpt><trkpt lat="45.870632" lon="9.238924"><ele>780.3</ele><time>2016-02-20T12:30:46Z</time></trkpt><trkpt lat="45.870647" lon="9.238925"><ele>780.3</ele><time>2016-02-20T12:30:47Z</time></trkpt><trkpt lat="45.870669" lon="9.238915"><ele>780.3</ele><time>2016-02-20T12:30:51Z</time></trkpt><trkpt lat="45.870685" lon="9.238915"><ele>780.3</ele><time>2016-02-20T12:30:52Z</time></trkpt><trkpt lat="45.870706" lon="9.238920"><ele>780.3</ele><time>2016-02-20T12:30:53Z</time></trkpt><trkpt lat="45.870802" lon="9.238940"><ele>780.3</ele><time>2016-02-20T12:30:59Z</time></trkpt><trkpt lat="45.870819" lon="9.238941"><ele>780.3</ele><time>2016-02-20T12:31:00Z</time></trkpt><trkpt lat="45.870836" lon="9.238945"><ele>780.3</ele><time>2016-02-20T12:31:01Z</time></trkpt><trkpt lat="45.870853" lon="9.238951"><ele>780.3</ele><time>2016-02-20T12:31:02Z</time></trkpt><trkpt lat="45.870867" lon="9.238950"><ele>780.3</ele><time>2016-02-20T12:31:03Z</time></trkpt><trkpt lat="45.870901" lon="9.238921"><ele>780.3</ele><time>2016-02-20T12:31:08Z</time></trkpt><trkpt lat="45.870918" lon="9.238913"><ele>780.3</ele><time>2016-02-20T12:31:09Z</time></trkpt><trkpt lat="45.870941" lon="9.238912"><ele>780.3</ele><time>2016-02-20T12:31:10Z</time></trkpt><trkpt lat="45.870964" lon="9.238918"><ele>780.3</ele><time>2016-02-20T12:31:11Z</time></trkpt><trkpt lat="45.870979" lon="9.238925"><ele>780.3</ele><time>2016-02-20T12:31:12Z</time></trkpt><trkpt lat="45.871010" lon="9.238911"><ele>780.3</ele><time>2016-02-20T12:31:16Z</time></trkpt><trkpt lat="45.871028" lon="9.238901"><ele>780.3</ele><time>2016-02-20T12:31:17Z</time></trkpt><trkpt lat="45.871050" lon="9.238896"><ele>780.3</ele><time>2016-02-20T12:31:18Z</time></trkpt><trkpt lat="45.871108" lon="9.238872"><ele>780.3</ele><time>2016-02-20T12:31:24Z</time></trkpt><trkpt lat="45.871114" lon="9.238856"><ele>780.3</ele><time>2016-02-20T12:31:25Z</time></trkpt><trkpt lat="45.871122" lon="9.238840"><ele>780.3</ele><time>2016-02-20T12:31:26Z</time></trkpt><trkpt lat="45.871132" lon="9.238826"><ele>780.3</ele><time>2016-02-20T12:31:27Z</time></trkpt><trkpt lat="45.871137" lon="9.238813"><ele>780.3</ele><time>2016-02-20T12:31:28Z</time></trkpt><trkpt lat="45.871155" lon="9.238712"><ele>781.7</ele><time>2016-02-20T12:31:36Z</time></trkpt><trkpt lat="45.871161" lon="9.238619"><ele>782.2</ele><time>2016-02-20T12:31:41Z</time></trkpt><trkpt lat="45.871172" lon="9.238598"><ele>782.7</ele><time>2016-02-20T12:31:42Z</time></trkpt><trkpt lat="45.871324" lon="9.238379"><ele>783.1</ele><time>2016-02-20T12:31:57Z</time></trkpt><trkpt lat="45.871407" lon="9.238122"><ele>783.6</ele><time>2016-02-20T12:32:14Z</time></trkpt><trkpt lat="45.871519" lon="9.237898"><ele>786.5</ele><time>2016-02-20T12:32:33Z</time></trkpt><trkpt lat="45.871450" lon="9.237613"><ele>789.4</ele><time>2016-02-20T12:32:48Z</time></trkpt><trkpt lat="45.871404" lon="9.237347"><ele>792.7</ele><time>2016-02-20T12:33:02Z</time></trkpt><trkpt lat="45.871392" lon="9.237106"><ele>795.6</ele><time>2016-02-20T12:33:19Z</time></trkpt><trkpt lat="45.871400" lon="9.236878"><ele>798.0</ele><time>2016-02-20T12:33:31Z</time></trkpt><trkpt lat="45.871335" lon="9.236765"><ele>798.5</ele><time>2016-02-20T12:33:50Z</time></trkpt><trkpt lat="45.871355" lon="9.236772"><ele>798.5</ele><time>2016-02-20T12:34:09Z</time></trkpt><trkpt lat="45.871370" lon="9.236803"><ele>797.1</ele><time>2016-02-20T12:34:30Z</time></trkpt><trkpt lat="45.871358" lon="9.236865"><ele>797.1</ele><time>2016-02-20T12:34:46Z</time></trkpt><trkpt lat="45.871349" lon="9.236893"><ele>797.1</ele><time>2016-02-20T12:35:06Z</time></trkpt><trkpt lat="45.871347" lon="9.236889"><ele>797.1</ele><time>2016-02-20T12:35:20Z</time></trkpt><trkpt lat="45.871364" lon="9.236888"><ele>797.1</ele><time>2016-02-20T12:35:29Z</time></trkpt><trkpt lat="45.871371" lon="9.236869"><ele>798.5</ele><time>2016-02-20T12:35:42Z</time></trkpt><trkpt lat="45.871376" lon="9.236819"><ele>798.5</ele><time>2016-02-20T12:35:55Z</time></trkpt><trkpt lat="45.871381" lon="9.236801"><ele>797.1</ele><time>2016-02-20T12:36:00Z</time></trkpt></trkseg></trk></gpx>